<?xml version="1.0" encoding="UTF-8" standalone="no" ?>
<gpx xmlns="http://www.topografix.com/GPX/1/1" xmlns:xsi="http://www.w3.org/2001/XMLSchema-instance" xsi:schemaLocation="http://www.topografix.com/GPX/1/1 http://www.topografix.com/GPX/1/1/gpx.xsd" version="1.1" creator="VisuGPX - https://www.visugpx.com">
  <metadata>
    <name>Saint Romain des Atheux 30km</name>
    <desc><![CDATA[Equestival 2024]]></desc>
  </metadata>
  <wpt lat="45.31256" lon="4.45942">
    <ele>1132.3</ele>
    <name><![CDATA[pic-pic]]></name>
    <type><![CDATA[picnic]]></type>
  </wpt>
  <trk>
    <name><![CDATA[Equestival24  samedi après midi retour-19200722]]></name>
    <desc><![CDATA[

]]></desc>
    <extensions>
      <line xmlns="http://www.topografix.com/GPX/gpx_style/0/2">
        <color>FF0000</color>
        <width>4</width>
      </line>
    </extensions>
    <trkseg>
      <trkpt lat="45.31554" lon="4.45856">
        <ele>1152</ele>
        <time>2024-07-15T09:39:12Z</time>
      </trkpt>
      <trkpt lat="45.31573" lon="4.4585">
        <ele>1151</ele>
        <time>2024-07-15T09:39:28Z</time>
      </trkpt>
      <trkpt lat="45.31692" lon="4.45771">
        <ele>1143</ele>
        <time>2024-07-15T09:41:13Z</time>
      </trkpt>
      <trkpt lat="45.31828" lon="4.45695">
        <ele>1138</ele>
        <time>2024-07-15T09:43:10Z</time>
      </trkpt>
      <trkpt lat="45.31925" lon="4.45569">
        <ele>1126</ele>
        <time>2024-07-15T09:44:55Z</time>
      </trkpt>
      <trkpt lat="45.32003" lon="4.45504">
        <ele>1117</ele>
        <time>2024-07-15T09:46:07Z</time>
      </trkpt>
      <trkpt lat="45.32055" lon="4.45451">
        <ele>1112</ele>
        <time>2024-07-15T09:46:59Z</time>
      </trkpt>
      <trkpt lat="45.32086" lon="4.45397">
        <ele>1105</ele>
        <time>2024-07-15T09:47:38Z</time>
      </trkpt>
      <trkpt lat="45.32133" lon="4.45348">
        <ele>1101</ele>
        <time>2024-07-15T09:48:24Z</time>
      </trkpt>
      <trkpt lat="45.32183" lon="4.45253">
        <ele>1092</ele>
        <time>2024-07-15T09:49:31Z</time>
      </trkpt>
      <trkpt lat="45.32187" lon="4.45219">
        <ele>1089</ele>
        <time>2024-07-15T09:49:51Z</time>
      </trkpt>
      <trkpt lat="45.32169" lon="4.45179">
        <ele>1090</ele>
        <time>2024-07-15T09:50:17Z</time>
      </trkpt>
      <trkpt lat="45.32166" lon="4.45148">
        <ele>1090</ele>
        <time>2024-07-15T09:50:35Z</time>
      </trkpt>
      <trkpt lat="45.32159" lon="4.45108">
        <ele>1091</ele>
        <time>2024-07-15T09:50:58Z</time>
      </trkpt>
      <trkpt lat="45.32171" lon="4.45077">
        <ele>1091</ele>
        <time>2024-07-15T09:51:18Z</time>
      </trkpt>
      <trkpt lat="45.32217" lon="4.45071">
        <ele>1091</ele>
        <time>2024-07-15T09:51:55Z</time>
      </trkpt>
      <trkpt lat="45.32258" lon="4.44983">
        <ele>1097</ele>
        <time>2024-07-15T09:52:55Z</time>
      </trkpt>
      <trkpt lat="45.32277" lon="4.44957">
        <ele>1095</ele>
        <time>2024-07-15T09:53:16Z</time>
      </trkpt>
      <trkpt lat="45.32304" lon="4.44944">
        <ele>1089</ele>
        <time>2024-07-15T09:53:38Z</time>
      </trkpt>
      <trkpt lat="45.32308" lon="4.44944">
        <ele>1089</ele>
        <time>2024-07-15T09:53:42Z</time>
      </trkpt>
      <trkpt lat="45.32326" lon="4.44869">
        <ele>1085</ele>
        <time>2024-07-15T09:54:26Z</time>
      </trkpt>
      <trkpt lat="45.3232" lon="4.44835">
        <ele>1087</ele>
        <time>2024-07-15T09:54:46Z</time>
      </trkpt>
      <trkpt lat="45.32294" lon="4.44772">
        <ele>1093</ele>
        <time>2024-07-15T09:55:27Z</time>
      </trkpt>
      <trkpt lat="45.32295" lon="4.44716">
        <ele>1091</ele>
        <time>2024-07-15T09:55:59Z</time>
      </trkpt>
      <trkpt lat="45.32309" lon="4.4465">
        <ele>1084</ele>
        <time>2024-07-15T09:56:38Z</time>
      </trkpt>
      <trkpt lat="45.32293" lon="4.4456">
        <ele>1081</ele>
        <time>2024-07-15T09:57:30Z</time>
      </trkpt>
      <trkpt lat="45.32325" lon="4.44414">
        <ele>1065</ele>
        <time>2024-07-15T09:58:56Z</time>
      </trkpt>
      <trkpt lat="45.32347" lon="4.44307">
        <ele>1052</ele>
        <time>2024-07-15T09:59:59Z</time>
      </trkpt>
      <trkpt lat="45.32335" lon="4.44217">
        <ele>1049</ele>
        <time>2024-07-15T10:00:50Z</time>
      </trkpt>
      <trkpt lat="45.32392" lon="4.44157">
        <ele>1039</ele>
        <time>2024-07-15T10:01:47Z</time>
      </trkpt>
      <trkpt lat="45.32411" lon="4.44131">
        <ele>1036</ele>
        <time>2024-07-15T10:02:08Z</time>
      </trkpt>
      <trkpt lat="45.32382" lon="4.44061">
        <ele>1040</ele>
        <time>2024-07-15T10:02:54Z</time>
      </trkpt>
      <trkpt lat="45.32318" lon="4.43954">
        <ele>1040</ele>
        <time>2024-07-15T10:04:13Z</time>
      </trkpt>
      <trkpt lat="45.32279" lon="4.43902">
        <ele>1040</ele>
        <time>2024-07-15T10:04:56Z</time>
      </trkpt>
      <trkpt lat="45.32266" lon="4.43854">
        <ele>1041</ele>
        <time>2024-07-15T10:05:25Z</time>
      </trkpt>
      <trkpt lat="45.32202" lon="4.43652">
        <ele>1056</ele>
        <time>2024-07-15T10:07:29Z</time>
      </trkpt>
      <trkpt lat="45.32243" lon="4.43618">
        <ele>1051</ele>
        <time>2024-07-15T10:08:07Z</time>
      </trkpt>
      <trkpt lat="45.32275" lon="4.43541">
        <ele>1042</ele>
        <time>2024-07-15T10:08:58Z</time>
      </trkpt>
      <trkpt lat="45.32295" lon="4.43505">
        <ele>1035</ele>
        <time>2024-07-15T10:09:24Z</time>
      </trkpt>
      <trkpt lat="45.32335" lon="4.43459">
        <ele>1027</ele>
        <time>2024-07-15T10:10:05Z</time>
      </trkpt>
      <trkpt lat="45.32354" lon="4.43452">
        <ele>1023</ele>
        <time>2024-07-15T10:10:20Z</time>
      </trkpt>
      <trkpt lat="45.32392" lon="4.43397">
        <ele>1017</ele>
        <time>2024-07-15T10:11:04Z</time>
      </trkpt>
      <trkpt lat="45.32446" lon="4.43378">
        <ele>1010</ele>
        <time>2024-07-15T10:11:48Z</time>
      </trkpt>
      <trkpt lat="45.32491" lon="4.434">
        <ele>1007</ele>
        <time>2024-07-15T10:12:27Z</time>
      </trkpt>
      <trkpt lat="45.32528" lon="4.43397">
        <ele>1005</ele>
        <time>2024-07-15T10:12:56Z</time>
      </trkpt>
      <trkpt lat="45.32602" lon="4.43341">
        <ele>1005</ele>
        <time>2024-07-15T10:14:03Z</time>
      </trkpt>
      <trkpt lat="45.3261" lon="4.43314">
        <ele>1005</ele>
        <time>2024-07-15T10:14:20Z</time>
      </trkpt>
      <trkpt lat="45.32613" lon="4.43283">
        <ele>1004</ele>
        <time>2024-07-15T10:14:37Z</time>
      </trkpt>
      <trkpt lat="45.32618" lon="4.43266">
        <ele>1003</ele>
        <time>2024-07-15T10:14:48Z</time>
      </trkpt>
      <trkpt lat="45.32613" lon="4.43195">
        <ele>1000</ele>
        <time>2024-07-15T10:15:28Z</time>
      </trkpt>
      <trkpt lat="45.32625" lon="4.4315">
        <ele>996</ele>
        <time>2024-07-15T10:15:55Z</time>
      </trkpt>
      <trkpt lat="45.32641" lon="4.43072">
        <ele>989</ele>
        <time>2024-07-15T10:16:41Z</time>
      </trkpt>
      <trkpt lat="45.32645" lon="4.43049">
        <ele>987</ele>
        <time>2024-07-15T10:16:54Z</time>
      </trkpt>
      <trkpt lat="45.32679" lon="4.42962">
        <ele>980</ele>
        <time>2024-07-15T10:17:50Z</time>
      </trkpt>
      <trkpt lat="45.32697" lon="4.42924">
        <ele>978</ele>
        <time>2024-07-15T10:18:16Z</time>
      </trkpt>
      <trkpt lat="45.32717" lon="4.42904">
        <ele>975</ele>
        <time>2024-07-15T10:18:36Z</time>
      </trkpt>
      <trkpt lat="45.32721" lon="4.42901">
        <ele>975</ele>
        <time>2024-07-15T10:18:39Z</time>
      </trkpt>
      <trkpt lat="45.3272" lon="4.42885">
        <ele>974</ele>
        <time>2024-07-15T10:18:48Z</time>
      </trkpt>
      <trkpt lat="45.32714" lon="4.42856">
        <ele>974</ele>
        <time>2024-07-15T10:19:05Z</time>
      </trkpt>
      <trkpt lat="45.32706" lon="4.42846">
        <ele>973</ele>
        <time>2024-07-15T10:19:14Z</time>
      </trkpt>
      <trkpt lat="45.32687" lon="4.42834">
        <ele>972</ele>
        <time>2024-07-15T10:19:30Z</time>
      </trkpt>
      <trkpt lat="45.32677" lon="4.428">
        <ele>968</ele>
        <time>2024-07-15T10:19:51Z</time>
      </trkpt>
      <trkpt lat="45.32669" lon="4.42791">
        <ele>966</ele>
        <time>2024-07-15T10:19:59Z</time>
      </trkpt>
      <trkpt lat="45.32634" lon="4.42754">
        <ele>962</ele>
        <time>2024-07-15T10:20:34Z</time>
      </trkpt>
      <trkpt lat="45.32545" lon="4.42718">
        <ele>955</ele>
        <time>2024-07-15T10:21:48Z</time>
      </trkpt>
      <trkpt lat="45.32532" lon="4.427">
        <ele>952</ele>
        <time>2024-07-15T10:22:03Z</time>
      </trkpt>
      <trkpt lat="45.32385" lon="4.42598">
        <ele>944</ele>
        <time>2024-07-15T10:24:14Z</time>
      </trkpt>
      <trkpt lat="45.32395" lon="4.42569">
        <ele>944</ele>
        <time>2024-07-15T10:24:32Z</time>
      </trkpt>
      <trkpt lat="45.32413" lon="4.42516">
        <ele>947</ele>
        <time>2024-07-15T10:25:05Z</time>
      </trkpt>
      <trkpt lat="45.32377" lon="4.42475">
        <ele>950</ele>
        <time>2024-07-15T10:25:42Z</time>
      </trkpt>
      <trkpt lat="45.32397" lon="4.42419">
        <ele>948</ele>
        <time>2024-07-15T10:26:17Z</time>
      </trkpt>
      <trkpt lat="45.32399" lon="4.42407">
        <ele>947</ele>
        <time>2024-07-15T10:26:24Z</time>
      </trkpt>
      <trkpt lat="45.32423" lon="4.42393">
        <ele>945</ele>
        <time>2024-07-15T10:26:45Z</time>
      </trkpt>
      <trkpt lat="45.32432" lon="4.42392">
        <ele>944</ele>
        <time>2024-07-15T10:26:52Z</time>
      </trkpt>
      <trkpt lat="45.32458" lon="4.42378">
        <ele>942</ele>
        <time>2024-07-15T10:27:15Z</time>
      </trkpt>
      <trkpt lat="45.32472" lon="4.42376">
        <ele>941</ele>
        <time>2024-07-15T10:27:26Z</time>
      </trkpt>
      <trkpt lat="45.32489" lon="4.42373">
        <ele>939</ele>
        <time>2024-07-15T10:27:40Z</time>
      </trkpt>
      <trkpt lat="45.32507" lon="4.42372">
        <ele>938</ele>
        <time>2024-07-15T10:27:54Z</time>
      </trkpt>
      <trkpt lat="45.32525" lon="4.42375">
        <ele>936</ele>
        <time>2024-07-15T10:28:09Z</time>
      </trkpt>
      <trkpt lat="45.32549" lon="4.42392">
        <ele>933</ele>
        <time>2024-07-15T10:28:30Z</time>
      </trkpt>
      <trkpt lat="45.32566" lon="4.42399">
        <ele>931</ele>
        <time>2024-07-15T10:28:44Z</time>
      </trkpt>
      <trkpt lat="45.32576" lon="4.42399">
        <ele>930</ele>
        <time>2024-07-15T10:28:52Z</time>
      </trkpt>
      <trkpt lat="45.3262" lon="4.4238">
        <ele>928</ele>
        <time>2024-07-15T10:29:29Z</time>
      </trkpt>
      <trkpt lat="45.32623" lon="4.42381">
        <ele>928</ele>
        <time>2024-07-15T10:29:31Z</time>
      </trkpt>
      <trkpt lat="45.32642" lon="4.42391">
        <ele>928</ele>
        <time>2024-07-15T10:29:48Z</time>
      </trkpt>
      <trkpt lat="45.32663" lon="4.42406">
        <ele>928</ele>
        <time>2024-07-15T10:30:06Z</time>
      </trkpt>
      <trkpt lat="45.32687" lon="4.42416">
        <ele>927</ele>
        <time>2024-07-15T10:30:27Z</time>
      </trkpt>
      <trkpt lat="45.32694" lon="4.42419">
        <ele>927</ele>
        <time>2024-07-15T10:30:32Z</time>
      </trkpt>
      <trkpt lat="45.32706" lon="4.42418">
        <ele>926</ele>
        <time>2024-07-15T10:30:42Z</time>
      </trkpt>
      <trkpt lat="45.32721" lon="4.42414">
        <ele>925</ele>
        <time>2024-07-15T10:30:54Z</time>
      </trkpt>
      <trkpt lat="45.32715" lon="4.42392">
        <ele>924</ele>
        <time>2024-07-15T10:31:07Z</time>
      </trkpt>
      <trkpt lat="45.32686" lon="4.42382">
        <ele>925</ele>
        <time>2024-07-15T10:31:31Z</time>
      </trkpt>
      <trkpt lat="45.32671" lon="4.42364">
        <ele>925</ele>
        <time>2024-07-15T10:31:47Z</time>
      </trkpt>
      <trkpt lat="45.32658" lon="4.42343">
        <ele>925</ele>
        <time>2024-07-15T10:32:03Z</time>
      </trkpt>
      <trkpt lat="45.32637" lon="4.42335">
        <ele>926</ele>
        <time>2024-07-15T10:32:20Z</time>
      </trkpt>
      <trkpt lat="45.32623" lon="4.42332">
        <ele>927</ele>
        <time>2024-07-15T10:32:32Z</time>
      </trkpt>
      <trkpt lat="45.32611" lon="4.42324">
        <ele>928</ele>
        <time>2024-07-15T10:32:42Z</time>
      </trkpt>
      <trkpt lat="45.32606" lon="4.4232">
        <ele>929</ele>
        <time>2024-07-15T10:32:47Z</time>
      </trkpt>
      <trkpt lat="45.32598" lon="4.42287">
        <ele>931</ele>
        <time>2024-07-15T10:33:06Z</time>
      </trkpt>
      <trkpt lat="45.32605" lon="4.42246">
        <ele>931</ele>
        <time>2024-07-15T10:33:30Z</time>
      </trkpt>
      <trkpt lat="45.32615" lon="4.42212">
        <ele>931</ele>
        <time>2024-07-15T10:33:51Z</time>
      </trkpt>
      <trkpt lat="45.32631" lon="4.4216">
        <ele>930</ele>
        <time>2024-07-15T10:34:23Z</time>
      </trkpt>
      <trkpt lat="45.32637" lon="4.42119">
        <ele>927</ele>
        <time>2024-07-15T10:34:46Z</time>
      </trkpt>
      <trkpt lat="45.32635" lon="4.42109">
        <ele>927</ele>
        <time>2024-07-15T10:34:52Z</time>
      </trkpt>
      <trkpt lat="45.32632" lon="4.42088">
        <ele>926</ele>
        <time>2024-07-15T10:35:04Z</time>
      </trkpt>
      <trkpt lat="45.32623" lon="4.42073">
        <ele>927</ele>
        <time>2024-07-15T10:35:15Z</time>
      </trkpt>
      <trkpt lat="45.32614" lon="4.42063">
        <ele>927</ele>
        <time>2024-07-15T10:35:25Z</time>
      </trkpt>
      <trkpt lat="45.32609" lon="4.42061">
        <ele>927</ele>
        <time>2024-07-15T10:35:29Z</time>
      </trkpt>
      <trkpt lat="45.32602" lon="4.42057">
        <ele>928</ele>
        <time>2024-07-15T10:35:35Z</time>
      </trkpt>
      <trkpt lat="45.32563" lon="4.42064">
        <ele>930</ele>
        <time>2024-07-15T10:36:06Z</time>
      </trkpt>
      <trkpt lat="45.32544" lon="4.42064">
        <ele>932</ele>
        <time>2024-07-15T10:36:22Z</time>
      </trkpt>
      <trkpt lat="45.32538" lon="4.42056">
        <ele>933</ele>
        <time>2024-07-15T10:36:28Z</time>
      </trkpt>
      <trkpt lat="45.32537" lon="4.42054">
        <ele>933</ele>
        <time>2024-07-15T10:36:29Z</time>
      </trkpt>
      <trkpt lat="45.32537" lon="4.42014">
        <ele>935</ele>
        <time>2024-07-15T10:36:52Z</time>
      </trkpt>
      <trkpt lat="45.32543" lon="4.41983">
        <ele>938</ele>
        <time>2024-07-15T10:37:10Z</time>
      </trkpt>
      <trkpt lat="45.32565" lon="4.41948">
        <ele>942</ele>
        <time>2024-07-15T10:37:37Z</time>
      </trkpt>
      <trkpt lat="45.32588" lon="4.41927">
        <ele>943</ele>
        <time>2024-07-15T10:37:58Z</time>
      </trkpt>
      <trkpt lat="45.32646" lon="4.41896">
        <ele>935</ele>
        <time>2024-07-15T10:38:48Z</time>
      </trkpt>
      <trkpt lat="45.32669" lon="4.41857">
        <ele>937</ele>
        <time>2024-07-15T10:39:17Z</time>
      </trkpt>
      <trkpt lat="45.3265" lon="4.41775">
        <ele>951</ele>
        <time>2024-07-15T10:40:05Z</time>
      </trkpt>
      <trkpt lat="45.32683" lon="4.41727">
        <ele>947</ele>
        <time>2024-07-15T10:40:43Z</time>
      </trkpt>
      <trkpt lat="45.32684" lon="4.41666">
        <ele>949</ele>
        <time>2024-07-15T10:41:17Z</time>
      </trkpt>
      <trkpt lat="45.32699" lon="4.41631">
        <ele>947</ele>
        <time>2024-07-15T10:41:40Z</time>
      </trkpt>
      <trkpt lat="45.32761" lon="4.41495">
        <ele>950</ele>
        <time>2024-07-15T10:43:12Z</time>
      </trkpt>
      <trkpt lat="45.32802" lon="4.41355">
        <ele>946</ele>
        <time>2024-07-15T10:44:37Z</time>
      </trkpt>
      <trkpt lat="45.32827" lon="4.41306">
        <ele>945</ele>
        <time>2024-07-15T10:45:11Z</time>
      </trkpt>
      <trkpt lat="45.32858" lon="4.41273">
        <ele>945</ele>
        <time>2024-07-15T10:45:42Z</time>
      </trkpt>
      <trkpt lat="45.32881" lon="4.41233">
        <ele>946</ele>
        <time>2024-07-15T10:46:11Z</time>
      </trkpt>
      <trkpt lat="45.32921" lon="4.412">
        <ele>944</ele>
        <time>2024-07-15T10:46:48Z</time>
      </trkpt>
      <trkpt lat="45.32958" lon="4.41172">
        <ele>942</ele>
        <time>2024-07-15T10:47:22Z</time>
      </trkpt>
      <trkpt lat="45.32985" lon="4.41127">
        <ele>938</ele>
        <time>2024-07-15T10:47:55Z</time>
      </trkpt>
      <trkpt lat="45.32984" lon="4.41095">
        <ele>941</ele>
        <time>2024-07-15T10:48:13Z</time>
      </trkpt>
      <trkpt lat="45.32967" lon="4.41042">
        <ele>950</ele>
        <time>2024-07-15T10:48:46Z</time>
      </trkpt>
      <trkpt lat="45.33037" lon="4.40977">
        <ele>942</ele>
        <time>2024-07-15T10:49:53Z</time>
      </trkpt>
      <trkpt lat="45.33054" lon="4.40819">
        <ele>949</ele>
        <time>2024-07-15T10:51:23Z</time>
      </trkpt>
      <trkpt lat="45.3307" lon="4.40686">
        <ele>948</ele>
        <time>2024-07-15T10:52:39Z</time>
      </trkpt>
      <trkpt lat="45.33078" lon="4.40668">
        <ele>945</ele>
        <time>2024-07-15T10:52:51Z</time>
      </trkpt>
      <trkpt lat="45.33101" lon="4.40636">
        <ele>938</ele>
        <time>2024-07-15T10:53:17Z</time>
      </trkpt>
      <trkpt lat="45.33112" lon="4.4061">
        <ele>935</ele>
        <time>2024-07-15T10:53:34Z</time>
      </trkpt>
      <trkpt lat="45.33118" lon="4.40569">
        <ele>933</ele>
        <time>2024-07-15T10:53:57Z</time>
      </trkpt>
      <trkpt lat="45.33116" lon="4.40523">
        <ele>931</ele>
        <time>2024-07-15T10:54:23Z</time>
      </trkpt>
      <trkpt lat="45.33111" lon="4.40478">
        <ele>929</ele>
        <time>2024-07-15T10:54:49Z</time>
      </trkpt>
      <trkpt lat="45.33108" lon="4.4046">
        <ele>927</ele>
        <time>2024-07-15T10:54:59Z</time>
      </trkpt>
      <trkpt lat="45.33108" lon="4.40441">
        <ele>926</ele>
        <time>2024-07-15T10:55:10Z</time>
      </trkpt>
      <trkpt lat="45.33108" lon="4.40437">
        <ele>925</ele>
        <time>2024-07-15T10:55:12Z</time>
      </trkpt>
      <trkpt lat="45.3311" lon="4.40423">
        <ele>924</ele>
        <time>2024-07-15T10:55:20Z</time>
      </trkpt>
      <trkpt lat="45.33118" lon="4.40416">
        <ele>925</ele>
        <time>2024-07-15T10:55:28Z</time>
      </trkpt>
      <trkpt lat="45.33121" lon="4.40416">
        <ele>925</ele>
        <time>2024-07-15T10:55:30Z</time>
      </trkpt>
      <trkpt lat="45.33125" lon="4.40416">
        <ele>926</ele>
        <time>2024-07-15T10:55:33Z</time>
      </trkpt>
      <trkpt lat="45.33127" lon="4.4041">
        <ele>927</ele>
        <time>2024-07-15T10:55:37Z</time>
      </trkpt>
      <trkpt lat="45.33118" lon="4.40386">
        <ele>927</ele>
        <time>2024-07-15T10:55:52Z</time>
      </trkpt>
      <trkpt lat="45.3309" lon="4.40343">
        <ele>920</ele>
        <time>2024-07-15T10:56:25Z</time>
      </trkpt>
      <trkpt lat="45.33064" lon="4.40294">
        <ele>921</ele>
        <time>2024-07-15T10:57:00Z</time>
      </trkpt>
      <trkpt lat="45.33044" lon="4.40251">
        <ele>920</ele>
        <time>2024-07-15T10:57:29Z</time>
      </trkpt>
      <trkpt lat="45.33046" lon="4.4023">
        <ele>920</ele>
        <time>2024-07-15T10:57:41Z</time>
      </trkpt>
      <trkpt lat="45.33054" lon="4.40133">
        <ele>923</ele>
        <time>2024-07-15T10:58:36Z</time>
      </trkpt>
      <trkpt lat="45.33047" lon="4.40104">
        <ele>923</ele>
        <time>2024-07-15T10:58:53Z</time>
      </trkpt>
      <trkpt lat="45.33043" lon="4.40062">
        <ele>924</ele>
        <time>2024-07-15T10:59:17Z</time>
      </trkpt>
      <trkpt lat="45.33044" lon="4.39999">
        <ele>927</ele>
        <time>2024-07-15T10:59:52Z</time>
      </trkpt>
      <trkpt lat="45.33049" lon="4.39972">
        <ele>927</ele>
        <time>2024-07-15T11:00:08Z</time>
      </trkpt>
      <trkpt lat="45.33058" lon="4.39937">
        <ele>927</ele>
        <time>2024-07-15T11:00:29Z</time>
      </trkpt>
      <trkpt lat="45.33045" lon="4.39942">
        <ele>926</ele>
        <time>2024-07-15T11:00:40Z</time>
      </trkpt>
      <trkpt lat="45.33058" lon="4.39937">
        <ele>927</ele>
        <time>2024-07-15T11:00:51Z</time>
      </trkpt>
      <trkpt lat="45.33148" lon="4.39851">
        <ele>925</ele>
        <time>2024-07-15T11:02:18Z</time>
      </trkpt>
      <trkpt lat="45.33229" lon="4.39791">
        <ele>921</ele>
        <time>2024-07-15T11:03:31Z</time>
      </trkpt>
      <trkpt lat="45.3326" lon="4.3978">
        <ele>921</ele>
        <time>2024-07-15T11:03:56Z</time>
      </trkpt>
      <trkpt lat="45.33294" lon="4.3978">
        <ele>922</ele>
        <time>2024-07-15T11:04:23Z</time>
      </trkpt>
      <trkpt lat="45.33333" lon="4.39792">
        <ele>925</ele>
        <time>2024-07-15T11:04:55Z</time>
      </trkpt>
      <trkpt lat="45.33348" lon="4.39786">
        <ele>924</ele>
        <time>2024-07-15T11:05:08Z</time>
      </trkpt>
      <trkpt lat="45.33409" lon="4.39707">
        <ele>920</ele>
        <time>2024-07-15T11:06:14Z</time>
      </trkpt>
      <trkpt lat="45.33438" lon="4.39691">
        <ele>923</ele>
        <time>2024-07-15T11:06:39Z</time>
      </trkpt>
      <trkpt lat="45.33442" lon="4.39689">
        <ele>923</ele>
        <time>2024-07-15T11:06:42Z</time>
      </trkpt>
      <trkpt lat="45.33481" lon="4.39987">
        <ele>956</ele>
        <time>2024-07-15T11:09:33Z</time>
      </trkpt>
      <trkpt lat="45.33482" lon="4.4003">
        <ele>963</ele>
        <time>2024-07-15T11:09:57Z</time>
      </trkpt>
      <trkpt lat="45.33565" lon="4.40098">
        <ele>969</ele>
        <time>2024-07-15T11:11:14Z</time>
      </trkpt>
      <trkpt lat="45.33571" lon="4.4013">
        <ele>970</ele>
        <time>2024-07-15T11:11:32Z</time>
      </trkpt>
      <trkpt lat="45.33567" lon="4.40113">
        <ele>969</ele>
        <time>2024-07-15T11:11:42Z</time>
      </trkpt>
      <trkpt lat="45.33588" lon="4.40112">
        <ele>968</ele>
        <time>2024-07-15T11:11:59Z</time>
      </trkpt>
      <trkpt lat="45.33624" lon="4.40091">
        <ele>970</ele>
        <time>2024-07-15T11:12:30Z</time>
      </trkpt>
      <trkpt lat="45.33693" lon="4.40045">
        <ele>972</ele>
        <time>2024-07-15T11:13:31Z</time>
      </trkpt>
      <trkpt lat="45.33722" lon="4.40028">
        <ele>971</ele>
        <time>2024-07-15T11:13:57Z</time>
      </trkpt>
      <trkpt lat="45.33754" lon="4.40017">
        <ele>972</ele>
        <time>2024-07-15T11:14:23Z</time>
      </trkpt>
      <trkpt lat="45.33776" lon="4.40017">
        <ele>972</ele>
        <time>2024-07-15T11:14:41Z</time>
      </trkpt>
      <trkpt lat="45.33794" lon="4.40019">
        <ele>973</ele>
        <time>2024-07-15T11:14:55Z</time>
      </trkpt>
      <trkpt lat="45.33839" lon="4.40031">
        <ele>976</ele>
        <time>2024-07-15T11:15:32Z</time>
      </trkpt>
      <trkpt lat="45.33855" lon="4.40041">
        <ele>977</ele>
        <time>2024-07-15T11:15:46Z</time>
      </trkpt>
      <trkpt lat="45.3388" lon="4.40075">
        <ele>982</ele>
        <time>2024-07-15T11:16:13Z</time>
      </trkpt>
      <trkpt lat="45.33886" lon="4.40085">
        <ele>983</ele>
        <time>2024-07-15T11:16:21Z</time>
      </trkpt>
      <trkpt lat="45.33911" lon="4.40135">
        <ele>990</ele>
        <time>2024-07-15T11:16:55Z</time>
      </trkpt>
      <trkpt lat="45.33933" lon="4.40158">
        <ele>993</ele>
        <time>2024-07-15T11:17:17Z</time>
      </trkpt>
      <trkpt lat="45.33939" lon="4.4016">
        <ele>994</ele>
        <time>2024-07-15T11:17:22Z</time>
      </trkpt>
      <trkpt lat="45.33945" lon="4.40173">
        <ele>995</ele>
        <time>2024-07-15T11:17:31Z</time>
      </trkpt>
      <trkpt lat="45.33949" lon="4.40175">
        <ele>995</ele>
        <time>2024-07-15T11:17:34Z</time>
      </trkpt>
      <trkpt lat="45.33957" lon="4.4018">
        <ele>996</ele>
        <time>2024-07-15T11:17:41Z</time>
      </trkpt>
      <trkpt lat="45.33963" lon="4.40179">
        <ele>996</ele>
        <time>2024-07-15T11:17:46Z</time>
      </trkpt>
      <trkpt lat="45.33969" lon="4.40175">
        <ele>997</ele>
        <time>2024-07-15T11:17:51Z</time>
      </trkpt>
      <trkpt lat="45.3398" lon="4.40162">
        <ele>996</ele>
        <time>2024-07-15T11:18:03Z</time>
      </trkpt>
      <trkpt lat="45.33986" lon="4.40158">
        <ele>997</ele>
        <time>2024-07-15T11:18:08Z</time>
      </trkpt>
      <trkpt lat="45.34045" lon="4.40143">
        <ele>999</ele>
        <time>2024-07-15T11:18:56Z</time>
      </trkpt>
      <trkpt lat="45.34049" lon="4.40143">
        <ele>999</ele>
        <time>2024-07-15T11:18:59Z</time>
      </trkpt>
      <trkpt lat="45.34057" lon="4.40144">
        <ele>1000</ele>
        <time>2024-07-15T11:19:06Z</time>
      </trkpt>
      <trkpt lat="45.34108" lon="4.40177">
        <ele>1002</ele>
        <time>2024-07-15T11:19:51Z</time>
      </trkpt>
      <trkpt lat="45.34324" lon="4.40326">
        <ele>1017</ele>
        <time>2024-07-15T11:23:03Z</time>
      </trkpt>
      <trkpt lat="45.34331" lon="4.4036">
        <ele>1018</ele>
        <time>2024-07-15T11:23:23Z</time>
      </trkpt>
      <trkpt lat="45.34436" lon="4.40396">
        <ele>1019</ele>
        <time>2024-07-15T11:24:49Z</time>
      </trkpt>
      <trkpt lat="45.34462" lon="4.40253">
        <ele>1023</ele>
        <time>2024-07-15T11:26:12Z</time>
      </trkpt>
      <trkpt lat="45.34503" lon="4.40095">
        <ele>1023</ele>
        <time>2024-07-15T11:27:47Z</time>
      </trkpt>
      <trkpt lat="45.3454" lon="4.40008">
        <ele>1019</ele>
        <time>2024-07-15T11:28:44Z</time>
      </trkpt>
      <trkpt lat="45.34641" lon="4.39848">
        <ele>1008</ele>
        <time>2024-07-15T11:30:45Z</time>
      </trkpt>
      <trkpt lat="45.34718" lon="4.39692">
        <ele>1002</ele>
        <time>2024-07-15T11:32:33Z</time>
      </trkpt>
      <trkpt lat="45.34783" lon="4.39622">
        <ele>996</ele>
        <time>2024-07-15T11:33:38Z</time>
      </trkpt>
      <trkpt lat="45.34831" lon="4.395">
        <ele>990</ele>
        <time>2024-07-15T11:34:57Z</time>
      </trkpt>
      <trkpt lat="45.34883" lon="4.39461">
        <ele>985</ele>
        <time>2024-07-15T11:35:44Z</time>
      </trkpt>
      <trkpt lat="45.34974" lon="4.39332">
        <ele>977</ele>
        <time>2024-07-15T11:37:27Z</time>
      </trkpt>
      <trkpt lat="45.34997" lon="4.3935">
        <ele>975</ele>
        <time>2024-07-15T11:37:48Z</time>
      </trkpt>
      <trkpt lat="45.34982" lon="4.39425">
        <ele>974</ele>
        <time>2024-07-15T11:38:31Z</time>
      </trkpt>
      <trkpt lat="45.3496" lon="4.3948">
        <ele>976</ele>
        <time>2024-07-15T11:39:07Z</time>
      </trkpt>
      <trkpt lat="45.34972" lon="4.39511">
        <ele>974</ele>
        <time>2024-07-15T11:39:27Z</time>
      </trkpt>
      <trkpt lat="45.34977" lon="4.39548">
        <ele>975</ele>
        <time>2024-07-15T11:39:48Z</time>
      </trkpt>
      <trkpt lat="45.34997" lon="4.39556">
        <ele>973</ele>
        <time>2024-07-15T11:40:05Z</time>
      </trkpt>
      <trkpt lat="45.35125" lon="4.39476">
        <ele>964</ele>
        <time>2024-07-15T11:41:57Z</time>
      </trkpt>
      <trkpt lat="45.35184" lon="4.39436">
        <ele>960</ele>
        <time>2024-07-15T11:42:49Z</time>
      </trkpt>
      <trkpt lat="45.35234" lon="4.39373">
        <ele>959</ele>
        <time>2024-07-15T11:43:43Z</time>
      </trkpt>
      <trkpt lat="45.35273" lon="4.39371">
        <ele>963</ele>
        <time>2024-07-15T11:44:14Z</time>
      </trkpt>
      <trkpt lat="45.35401" lon="4.39368">
        <ele>968</ele>
        <time>2024-07-15T11:45:56Z</time>
      </trkpt>
      <trkpt lat="45.3541" lon="4.39372">
        <ele>967</ele>
        <time>2024-07-15T11:46:04Z</time>
      </trkpt>
      <trkpt lat="45.35423" lon="4.39358">
        <ele>967</ele>
        <time>2024-07-15T11:46:17Z</time>
      </trkpt>
      <trkpt lat="45.3546" lon="4.39332">
        <ele>965</ele>
        <time>2024-07-15T11:46:50Z</time>
      </trkpt>
      <trkpt lat="45.35515" lon="4.39271">
        <ele>967</ele>
        <time>2024-07-15T11:47:46Z</time>
      </trkpt>
      <trkpt lat="45.35539" lon="4.39243">
        <ele>968</ele>
        <time>2024-07-15T11:48:11Z</time>
      </trkpt>
      <trkpt lat="45.35616" lon="4.39146">
        <ele>968</ele>
        <time>2024-07-15T11:49:33Z</time>
      </trkpt>
      <trkpt lat="45.35681" lon="4.39066">
        <ele>966</ele>
        <time>2024-07-15T11:50:42Z</time>
      </trkpt>
      <trkpt lat="45.35726" lon="4.39007">
        <ele>966</ele>
        <time>2024-07-15T11:51:31Z</time>
      </trkpt>
      <trkpt lat="45.35768" lon="4.38957">
        <ele>965</ele>
        <time>2024-07-15T11:52:15Z</time>
      </trkpt>
      <trkpt lat="45.3578" lon="4.38931">
        <ele>965</ele>
        <time>2024-07-15T11:52:32Z</time>
      </trkpt>
      <trkpt lat="45.35804" lon="4.38871">
        <ele>958</ele>
        <time>2024-07-15T11:53:11Z</time>
      </trkpt>
      <trkpt lat="45.35809" lon="4.38786">
        <ele>942</ele>
        <time>2024-07-15T11:53:59Z</time>
      </trkpt>
      <trkpt lat="45.35828" lon="4.38678">
        <ele>927</ele>
        <time>2024-07-15T11:55:02Z</time>
      </trkpt>
      <trkpt lat="45.35841" lon="4.38616">
        <ele>923</ele>
        <time>2024-07-15T11:55:38Z</time>
      </trkpt>
      <trkpt lat="45.35856" lon="4.38565">
        <ele>919</ele>
        <time>2024-07-15T11:56:09Z</time>
      </trkpt>
      <trkpt lat="45.3586" lon="4.38551">
        <ele>919</ele>
        <time>2024-07-15T11:56:18Z</time>
      </trkpt>
      <trkpt lat="45.35849" lon="4.38526">
        <ele>918</ele>
        <time>2024-07-15T11:56:34Z</time>
      </trkpt>
      <trkpt lat="45.35844" lon="4.38485">
        <ele>916</ele>
        <time>2024-07-15T11:56:58Z</time>
      </trkpt>
      <trkpt lat="45.35883" lon="4.3839">
        <ele>912</ele>
        <time>2024-07-15T11:57:59Z</time>
      </trkpt>
      <trkpt lat="45.35883" lon="4.38388">
        <ele>912</ele>
        <time>2024-07-15T11:58:01Z</time>
      </trkpt>
      <trkpt lat="45.3588" lon="4.38279">
        <ele>906</ele>
        <time>2024-07-15T11:59:02Z</time>
      </trkpt>
      <trkpt lat="45.35875" lon="4.38279">
        <ele>906</ele>
        <time>2024-07-15T11:59:06Z</time>
      </trkpt>
      <trkpt lat="45.3588" lon="4.38279">
        <ele>906</ele>
        <time>2024-07-15T11:59:10Z</time>
      </trkpt>
      <trkpt lat="45.35877" lon="4.38175">
        <ele>900</ele>
        <time>2024-07-15T12:00:09Z</time>
      </trkpt>
      <trkpt lat="45.35875" lon="4.38152">
        <ele>899</ele>
        <time>2024-07-15T12:00:22Z</time>
      </trkpt>
      <trkpt lat="45.35869" lon="4.3816">
        <ele>898</ele>
        <time>2024-07-15T12:00:28Z</time>
      </trkpt>
      <trkpt lat="45.35875" lon="4.38152">
        <ele>899</ele>
        <time>2024-07-15T12:00:35Z</time>
      </trkpt>
      <trkpt lat="45.35867" lon="4.38097">
        <ele>896</ele>
        <time>2024-07-15T12:01:06Z</time>
      </trkpt>
      <trkpt lat="45.35853" lon="4.38017">
        <ele>894</ele>
        <time>2024-07-15T12:01:53Z</time>
      </trkpt>
      <trkpt lat="45.35835" lon="4.37919">
        <ele>891</ele>
        <time>2024-07-15T12:02:50Z</time>
      </trkpt>
      <trkpt lat="45.35819" lon="4.37848">
        <ele>888</ele>
        <time>2024-07-15T12:03:32Z</time>
      </trkpt>
      <trkpt lat="45.35813" lon="4.37787">
        <ele>885</ele>
        <time>2024-07-15T12:04:06Z</time>
      </trkpt>
      <trkpt lat="45.35811" lon="4.37774">
        <ele>884</ele>
        <time>2024-07-15T12:04:14Z</time>
      </trkpt>
      <trkpt lat="45.35813" lon="4.37726">
        <ele>882</ele>
        <time>2024-07-15T12:04:41Z</time>
      </trkpt>
      <trkpt lat="45.35829" lon="4.37662">
        <ele>880</ele>
        <time>2024-07-15T12:05:19Z</time>
      </trkpt>
      <trkpt lat="45.35806" lon="4.37691">
        <ele>880</ele>
        <time>2024-07-15T12:05:44Z</time>
      </trkpt>
      <trkpt lat="45.35803" lon="4.37697">
        <ele>880</ele>
        <time>2024-07-15T12:05:48Z</time>
      </trkpt>
      <trkpt lat="45.35806" lon="4.37691">
        <ele>880</ele>
        <time>2024-07-15T12:05:52Z</time>
      </trkpt>
      <trkpt lat="45.35829" lon="4.37662">
        <ele>880</ele>
        <time>2024-07-15T12:06:17Z</time>
      </trkpt>
      <trkpt lat="45.35831" lon="4.37659">
        <ele>880</ele>
        <time>2024-07-15T12:06:19Z</time>
      </trkpt>
      <trkpt lat="45.35836" lon="4.37653">
        <ele>880</ele>
        <time>2024-07-15T09:22:34Z</time>
      </trkpt>
      <trkpt lat="45.35829" lon="4.37662">
        <ele>880</ele>
        <time>2024-07-15T09:22:42Z</time>
      </trkpt>
      <trkpt lat="45.35813" lon="4.37726">
        <ele>882</ele>
        <time>2024-07-15T09:23:20Z</time>
      </trkpt>
      <trkpt lat="45.35811" lon="4.37774">
        <ele>884</ele>
        <time>2024-07-15T09:23:47Z</time>
      </trkpt>
      <trkpt lat="45.35807" lon="4.3777">
        <ele>883</ele>
        <time>2024-07-15T09:23:51Z</time>
      </trkpt>
      <trkpt lat="45.35811" lon="4.37774">
        <ele>884</ele>
        <time>2024-07-15T09:23:55Z</time>
      </trkpt>
      <trkpt lat="45.35819" lon="4.37848">
        <ele>888</ele>
        <time>2024-07-15T09:24:37Z</time>
      </trkpt>
      <trkpt lat="45.35835" lon="4.37919">
        <ele>891</ele>
        <time>2024-07-15T09:25:19Z</time>
      </trkpt>
      <trkpt lat="45.35853" lon="4.38017">
        <ele>894</ele>
        <time>2024-07-15T09:26:16Z</time>
      </trkpt>
      <trkpt lat="45.35867" lon="4.38097">
        <ele>896</ele>
        <time>2024-07-15T09:27:02Z</time>
      </trkpt>
      <trkpt lat="45.35875" lon="4.38152">
        <ele>899</ele>
        <time>2024-07-15T09:27:34Z</time>
      </trkpt>
      <trkpt lat="45.35872" lon="4.38156">
        <ele>898</ele>
        <time>2024-07-15T09:27:37Z</time>
      </trkpt>
      <trkpt lat="45.35875" lon="4.38152">
        <ele>899</ele>
        <time>2024-07-15T09:27:40Z</time>
      </trkpt>
      <trkpt lat="45.35877" lon="4.38175">
        <ele>900</ele>
        <time>2024-07-15T09:27:53Z</time>
      </trkpt>
      <trkpt lat="45.3588" lon="4.38279">
        <ele>906</ele>
        <time>2024-07-15T09:28:52Z</time>
      </trkpt>
      <trkpt lat="45.35872" lon="4.3828">
        <ele>905</ele>
        <time>2024-07-15T09:28:58Z</time>
      </trkpt>
      <trkpt lat="45.3588" lon="4.38279">
        <ele>906</ele>
        <time>2024-07-15T09:29:05Z</time>
      </trkpt>
      <trkpt lat="45.35883" lon="4.3839">
        <ele>912</ele>
        <time>2024-07-15T09:30:07Z</time>
      </trkpt>
      <trkpt lat="45.3588" lon="4.38398">
        <ele>912</ele>
        <time>2024-07-15T09:30:12Z</time>
      </trkpt>
      <trkpt lat="45.35844" lon="4.38485">
        <ele>916</ele>
        <time>2024-07-15T09:31:09Z</time>
      </trkpt>
      <trkpt lat="45.35849" lon="4.38526">
        <ele>918</ele>
        <time>2024-07-15T09:31:33Z</time>
      </trkpt>
      <trkpt lat="45.3586" lon="4.38551">
        <ele>919</ele>
        <time>2024-07-15T09:31:49Z</time>
      </trkpt>
      <trkpt lat="45.35851" lon="4.38581">
        <ele>920</ele>
        <time>2024-07-15T09:32:08Z</time>
      </trkpt>
      <trkpt lat="45.35841" lon="4.38616">
        <ele>923</ele>
        <time>2024-07-15T09:32:29Z</time>
      </trkpt>
      <trkpt lat="45.35828" lon="4.38678">
        <ele>927</ele>
        <time>2024-07-15T09:33:05Z</time>
      </trkpt>
      <trkpt lat="45.35809" lon="4.38786">
        <ele>942</ele>
        <time>2024-07-15T09:34:08Z</time>
      </trkpt>
      <trkpt lat="45.35804" lon="4.38871">
        <ele>958</ele>
        <time>2024-07-15T09:34:56Z</time>
      </trkpt>
      <trkpt lat="45.35786" lon="4.38917">
        <ele>964</ele>
        <time>2024-07-15T09:35:25Z</time>
      </trkpt>
      <trkpt lat="45.35768" lon="4.38957">
        <ele>965</ele>
        <time>2024-07-15T09:35:52Z</time>
      </trkpt>
      <trkpt lat="45.35726" lon="4.39007">
        <ele>966</ele>
        <time>2024-07-15T09:36:36Z</time>
      </trkpt>
      <trkpt lat="45.35681" lon="4.39066">
        <ele>966</ele>
        <time>2024-07-15T09:37:25Z</time>
      </trkpt>
      <trkpt lat="45.35619" lon="4.39141">
        <ele>967</ele>
        <time>2024-07-15T09:38:30Z</time>
      </trkpt>
      <trkpt lat="45.35623" lon="4.39141">
        <ele>967</ele>
        <time>2024-07-15T09:38:33Z</time>
      </trkpt>
      <trkpt lat="45.35619" lon="4.39141">
        <ele>967</ele>
        <time>2024-07-15T09:38:37Z</time>
      </trkpt>
      <trkpt lat="45.35539" lon="4.39243">
        <ele>968</ele>
        <time>2024-07-15T09:40:03Z</time>
      </trkpt>
      <trkpt lat="45.35496" lon="4.39293">
        <ele>966</ele>
        <time>2024-07-15T09:40:47Z</time>
      </trkpt>
      <trkpt lat="45.3546" lon="4.39332">
        <ele>965</ele>
        <time>2024-07-15T09:41:23Z</time>
      </trkpt>
      <trkpt lat="45.35423" lon="4.39358">
        <ele>967</ele>
        <time>2024-07-15T09:41:56Z</time>
      </trkpt>
      <trkpt lat="45.3541" lon="4.39372">
        <ele>967</ele>
        <time>2024-07-15T09:42:09Z</time>
      </trkpt>
      <trkpt lat="45.35412" lon="4.39367">
        <ele>967</ele>
        <time>2024-07-15T09:42:13Z</time>
      </trkpt>
      <trkpt lat="45.3541" lon="4.39372">
        <ele>967</ele>
        <time>2024-07-15T09:42:16Z</time>
      </trkpt>
      <trkpt lat="45.35337" lon="4.39372">
        <ele>969</ele>
        <time>2024-07-15T09:43:14Z</time>
      </trkpt>
      <trkpt lat="45.35295" lon="4.39374">
        <ele>965</ele>
        <time>2024-07-15T09:43:48Z</time>
      </trkpt>
      <trkpt lat="45.35252" lon="4.39372">
        <ele>961</ele>
        <time>2024-07-15T09:44:22Z</time>
      </trkpt>
      <trkpt lat="45.35243" lon="4.39377">
        <ele>960</ele>
        <time>2024-07-15T09:44:30Z</time>
      </trkpt>
      <trkpt lat="45.35232" lon="4.39385">
        <ele>959</ele>
        <time>2024-07-15T09:44:40Z</time>
      </trkpt>
      <trkpt lat="45.35226" lon="4.3939">
        <ele>959</ele>
        <time>2024-07-15T09:44:46Z</time>
      </trkpt>
      <trkpt lat="45.35216" lon="4.39407">
        <ele>959</ele>
        <time>2024-07-15T09:44:58Z</time>
      </trkpt>
      <trkpt lat="45.35173" lon="4.39448">
        <ele>961</ele>
        <time>2024-07-15T09:45:39Z</time>
      </trkpt>
      <trkpt lat="45.35153" lon="4.39463">
        <ele>963</ele>
        <time>2024-07-15T09:45:58Z</time>
      </trkpt>
      <trkpt lat="45.35126" lon="4.39485">
        <ele>965</ele>
        <time>2024-07-15T09:46:22Z</time>
      </trkpt>
      <trkpt lat="45.35102" lon="4.39497">
        <ele>965</ele>
        <time>2024-07-15T09:46:43Z</time>
      </trkpt>
      <trkpt lat="45.35069" lon="4.3951">
        <ele>967</ele>
        <time>2024-07-15T09:47:10Z</time>
      </trkpt>
      <trkpt lat="45.35024" lon="4.39543">
        <ele>972</ele>
        <time>2024-07-15T09:47:51Z</time>
      </trkpt>
      <trkpt lat="45.34998" lon="4.39556">
        <ele>973</ele>
        <time>2024-07-15T09:48:13Z</time>
      </trkpt>
      <trkpt lat="45.34986" lon="4.39555">
        <ele>974</ele>
        <time>2024-07-15T09:48:22Z</time>
      </trkpt>
      <trkpt lat="45.34958" lon="4.3949">
        <ele>976</ele>
        <time>2024-07-15T09:49:05Z</time>
      </trkpt>
      <trkpt lat="45.34979" lon="4.39425">
        <ele>975</ele>
        <time>2024-07-15T09:49:46Z</time>
      </trkpt>
      <trkpt lat="45.34993" lon="4.39353">
        <ele>976</ele>
        <time>2024-07-15T09:50:28Z</time>
      </trkpt>
      <trkpt lat="45.34961" lon="4.39312">
        <ele>978</ele>
        <time>2024-07-15T09:51:02Z</time>
      </trkpt>
      <trkpt lat="45.34951" lon="4.3923">
        <ele>977</ele>
        <time>2024-07-15T09:51:49Z</time>
      </trkpt>
      <trkpt lat="45.34963" lon="4.39138">
        <ele>977</ele>
        <time>2024-07-15T09:52:42Z</time>
      </trkpt>
      <trkpt lat="45.34872" lon="4.39155">
        <ele>977</ele>
        <time>2024-07-15T09:53:55Z</time>
      </trkpt>
      <trkpt lat="45.34842" lon="4.39174">
        <ele>979</ele>
        <time>2024-07-15T09:54:21Z</time>
      </trkpt>
      <trkpt lat="45.34792" lon="4.39213">
        <ele>982</ele>
        <time>2024-07-15T09:55:07Z</time>
      </trkpt>
      <trkpt lat="45.34706" lon="4.39277">
        <ele>983</ele>
        <time>2024-07-15T09:56:25Z</time>
      </trkpt>
      <trkpt lat="45.34614" lon="4.39294">
        <ele>979</ele>
        <time>2024-07-15T09:57:39Z</time>
      </trkpt>
      <trkpt lat="45.34583" lon="4.39299">
        <ele>977</ele>
        <time>2024-07-15T09:58:04Z</time>
      </trkpt>
      <trkpt lat="45.34568" lon="4.39273">
        <ele>978</ele>
        <time>2024-07-15T09:58:23Z</time>
      </trkpt>
      <trkpt lat="45.34584" lon="4.39216">
        <ele>974</ele>
        <time>2024-07-15T09:58:57Z</time>
      </trkpt>
      <trkpt lat="45.34583" lon="4.39184">
        <ele>973</ele>
        <time>2024-07-15T09:59:16Z</time>
      </trkpt>
      <trkpt lat="45.34565" lon="4.39041">
        <ele>975</ele>
        <time>2024-07-15T10:00:37Z</time>
      </trkpt>
      <trkpt lat="45.34535" lon="4.39012">
        <ele>976</ele>
        <time>2024-07-15T10:01:06Z</time>
      </trkpt>
      <trkpt lat="45.34509" lon="4.39">
        <ele>976</ele>
        <time>2024-07-15T10:01:28Z</time>
      </trkpt>
      <trkpt lat="45.34491" lon="4.38965">
        <ele>975</ele>
        <time>2024-07-15T10:01:53Z</time>
      </trkpt>
      <trkpt lat="45.34435" lon="4.38813">
        <ele>963</ele>
        <time>2024-07-15T10:03:29Z</time>
      </trkpt>
      <trkpt lat="45.3442" lon="4.3877">
        <ele>958</ele>
        <time>2024-07-15T10:03:56Z</time>
      </trkpt>
      <trkpt lat="45.34408" lon="4.38727">
        <ele>954</ele>
        <time>2024-07-15T10:04:22Z</time>
      </trkpt>
      <trkpt lat="45.34406" lon="4.38694">
        <ele>952</ele>
        <time>2024-07-15T10:04:41Z</time>
      </trkpt>
      <trkpt lat="45.3439" lon="4.3862">
        <ele>948</ele>
        <time>2024-07-15T10:05:24Z</time>
      </trkpt>
      <trkpt lat="45.34384" lon="4.386">
        <ele>947</ele>
        <time>2024-07-15T10:05:37Z</time>
      </trkpt>
      <trkpt lat="45.3436" lon="4.38531">
        <ele>944</ele>
        <time>2024-07-15T10:06:20Z</time>
      </trkpt>
      <trkpt lat="45.34358" lon="4.38518">
        <ele>944</ele>
        <time>2024-07-15T10:06:27Z</time>
      </trkpt>
      <trkpt lat="45.34365" lon="4.38519">
        <ele>944</ele>
        <time>2024-07-15T10:06:33Z</time>
      </trkpt>
      <trkpt lat="45.34271" lon="4.38494">
        <ele>939</ele>
        <time>2024-07-15T10:07:50Z</time>
      </trkpt>
      <trkpt lat="45.3426" lon="4.38499">
        <ele>938</ele>
        <time>2024-07-15T10:07:59Z</time>
      </trkpt>
      <trkpt lat="45.34253" lon="4.38502">
        <ele>938</ele>
        <time>2024-07-15T10:08:05Z</time>
      </trkpt>
      <trkpt lat="45.34253" lon="4.38493">
        <ele>938</ele>
        <time>2024-07-15T10:08:10Z</time>
      </trkpt>
      <trkpt lat="45.34166" lon="4.38493">
        <ele>938</ele>
        <time>2024-07-15T10:09:20Z</time>
      </trkpt>
      <trkpt lat="45.34122" lon="4.3851">
        <ele>938</ele>
        <time>2024-07-15T10:09:56Z</time>
      </trkpt>
      <trkpt lat="45.34063" lon="4.38517">
        <ele>937</ele>
        <time>2024-07-15T10:10:43Z</time>
      </trkpt>
      <trkpt lat="45.33925" lon="4.38497">
        <ele>935</ele>
        <time>2024-07-15T10:12:34Z</time>
      </trkpt>
      <trkpt lat="45.33715" lon="4.38392">
        <ele>927</ele>
        <time>2024-07-15T10:15:33Z</time>
      </trkpt>
      <trkpt lat="45.33707" lon="4.38378">
        <ele>926</ele>
        <time>2024-07-15T10:15:43Z</time>
      </trkpt>
      <trkpt lat="45.33713" lon="4.38239">
        <ele>926</ele>
        <time>2024-07-15T10:17:01Z</time>
      </trkpt>
      <trkpt lat="45.3371" lon="4.38175">
        <ele>926</ele>
        <time>2024-07-15T10:17:37Z</time>
      </trkpt>
      <trkpt lat="45.337" lon="4.38117">
        <ele>924</ele>
        <time>2024-07-15T10:18:11Z</time>
      </trkpt>
      <trkpt lat="45.33698" lon="4.38103">
        <ele>923</ele>
        <time>2024-07-15T10:18:19Z</time>
      </trkpt>
      <trkpt lat="45.33696" lon="4.38112">
        <ele>923</ele>
        <time>2024-07-15T10:18:24Z</time>
      </trkpt>
      <trkpt lat="45.33688" lon="4.38124">
        <ele>923</ele>
        <time>2024-07-15T10:18:34Z</time>
      </trkpt>
      <trkpt lat="45.33669" lon="4.3814">
        <ele>921</ele>
        <time>2024-07-15T10:18:51Z</time>
      </trkpt>
      <trkpt lat="45.33658" lon="4.38157">
        <ele>921</ele>
        <time>2024-07-15T10:19:04Z</time>
      </trkpt>
      <trkpt lat="45.33587" lon="4.38285">
        <ele>919</ele>
        <time>2024-07-15T10:20:36Z</time>
      </trkpt>
      <trkpt lat="45.33576" lon="4.38298">
        <ele>918</ele>
        <time>2024-07-15T10:20:48Z</time>
      </trkpt>
      <trkpt lat="45.33468" lon="4.38391">
        <ele>908</ele>
        <time>2024-07-15T10:22:29Z</time>
      </trkpt>
      <trkpt lat="45.33461" lon="4.38396">
        <ele>907</ele>
        <time>2024-07-15T10:22:35Z</time>
      </trkpt>
      <trkpt lat="45.33318" lon="4.38494">
        <ele>897</ele>
        <time>2024-07-15T10:24:42Z</time>
      </trkpt>
      <trkpt lat="45.33197" lon="4.38572">
        <ele>888</ele>
        <time>2024-07-15T10:26:28Z</time>
      </trkpt>
      <trkpt lat="45.3318" lon="4.38589">
        <ele>887</ele>
        <time>2024-07-15T10:26:45Z</time>
      </trkpt>
      <trkpt lat="45.33158" lon="4.38612">
        <ele>885</ele>
        <time>2024-07-15T10:27:07Z</time>
      </trkpt>
      <trkpt lat="45.33118" lon="4.3868">
        <ele>881</ele>
        <time>2024-07-15T10:27:57Z</time>
      </trkpt>
      <trkpt lat="45.33093" lon="4.38736">
        <ele>878</ele>
        <time>2024-07-15T10:28:34Z</time>
      </trkpt>
      <trkpt lat="45.33083" lon="4.38769">
        <ele>877</ele>
        <time>2024-07-15T10:28:54Z</time>
      </trkpt>
      <trkpt lat="45.33077" lon="4.38768">
        <ele>876</ele>
        <time>2024-07-15T10:28:59Z</time>
      </trkpt>
      <trkpt lat="45.33051" lon="4.38758">
        <ele>875</ele>
        <time>2024-07-15T10:29:21Z</time>
      </trkpt>
      <trkpt lat="45.33036" lon="4.38744">
        <ele>874</ele>
        <time>2024-07-15T10:29:35Z</time>
      </trkpt>
      <trkpt lat="45.33006" lon="4.38692">
        <ele>872</ele>
        <time>2024-07-15T10:30:13Z</time>
      </trkpt>
      <trkpt lat="45.32989" lon="4.38676">
        <ele>872</ele>
        <time>2024-07-15T10:30:29Z</time>
      </trkpt>
      <trkpt lat="45.32935" lon="4.38646">
        <ele>870</ele>
        <time>2024-07-15T10:31:16Z</time>
      </trkpt>
      <trkpt lat="45.32911" lon="4.38639">
        <ele>869</ele>
        <time>2024-07-15T10:31:35Z</time>
      </trkpt>
      <trkpt lat="45.32879" lon="4.38635">
        <ele>868</ele>
        <time>2024-07-15T10:32:01Z</time>
      </trkpt>
      <trkpt lat="45.32873" lon="4.38632">
        <ele>868</ele>
        <time>2024-07-15T10:32:06Z</time>
      </trkpt>
      <trkpt lat="45.32795" lon="4.38656">
        <ele>866</ele>
        <time>2024-07-15T10:33:10Z</time>
      </trkpt>
      <trkpt lat="45.32712" lon="4.38673">
        <ele>873</ele>
        <time>2024-07-15T10:34:17Z</time>
      </trkpt>
      <trkpt lat="45.32643" lon="4.38668">
        <ele>885</ele>
        <time>2024-07-15T10:35:12Z</time>
      </trkpt>
      <trkpt lat="45.32598" lon="4.38666">
        <ele>893</ele>
        <time>2024-07-15T10:35:49Z</time>
      </trkpt>
      <trkpt lat="45.3253" lon="4.38631">
        <ele>904</ele>
        <time>2024-07-15T10:36:46Z</time>
      </trkpt>
      <trkpt lat="45.32463" lon="4.38618">
        <ele>915</ele>
        <time>2024-07-15T10:37:41Z</time>
      </trkpt>
      <trkpt lat="45.32423" lon="4.38588">
        <ele>920</ele>
        <time>2024-07-15T10:38:17Z</time>
      </trkpt>
      <trkpt lat="45.32402" lon="4.38586">
        <ele>921</ele>
        <time>2024-07-15T10:38:34Z</time>
      </trkpt>
      <trkpt lat="45.32281" lon="4.38584">
        <ele>923</ele>
        <time>2024-07-15T10:40:11Z</time>
      </trkpt>
      <trkpt lat="45.32224" lon="4.38608">
        <ele>923</ele>
        <time>2024-07-15T10:40:58Z</time>
      </trkpt>
      <trkpt lat="45.3219" lon="4.38616">
        <ele>921</ele>
        <time>2024-07-15T10:41:26Z</time>
      </trkpt>
      <trkpt lat="45.32169" lon="4.38646">
        <ele>924</ele>
        <time>2024-07-15T10:41:50Z</time>
      </trkpt>
      <trkpt lat="45.32149" lon="4.3868">
        <ele>928</ele>
        <time>2024-07-15T10:42:14Z</time>
      </trkpt>
      <trkpt lat="45.32079" lon="4.38744">
        <ele>937</ele>
        <time>2024-07-15T10:43:21Z</time>
      </trkpt>
      <trkpt lat="45.32033" lon="4.3879">
        <ele>942</ele>
        <time>2024-07-15T10:44:06Z</time>
      </trkpt>
      <trkpt lat="45.31996" lon="4.38825">
        <ele>948</ele>
        <time>2024-07-15T10:44:42Z</time>
      </trkpt>
      <trkpt lat="45.31974" lon="4.38862">
        <ele>953</ele>
        <time>2024-07-15T10:45:09Z</time>
      </trkpt>
      <trkpt lat="45.31934" lon="4.38883">
        <ele>955</ele>
        <time>2024-07-15T10:45:43Z</time>
      </trkpt>
      <trkpt lat="45.31775" lon="4.39022">
        <ele>955</ele>
        <time>2024-07-15T10:48:13Z</time>
      </trkpt>
      <trkpt lat="45.31723" lon="4.39023">
        <ele>951</ele>
        <time>2024-07-15T10:48:54Z</time>
      </trkpt>
      <trkpt lat="45.31658" lon="4.39114">
        <ele>952</ele>
        <time>2024-07-15T10:50:07Z</time>
      </trkpt>
      <trkpt lat="45.31718" lon="4.39133">
        <ele>952</ele>
        <time>2024-07-15T10:50:56Z</time>
      </trkpt>
      <trkpt lat="45.31803" lon="4.3911">
        <ele>956</ele>
        <time>2024-07-15T10:52:06Z</time>
      </trkpt>
      <trkpt lat="45.31869" lon="4.39133">
        <ele>959</ele>
        <time>2024-07-15T10:53:00Z</time>
      </trkpt>
      <trkpt lat="45.32039" lon="4.39159">
        <ele>962</ele>
        <time>2024-07-15T10:55:17Z</time>
      </trkpt>
      <trkpt lat="45.32118" lon="4.39172">
        <ele>966</ele>
        <time>2024-07-15T10:56:21Z</time>
      </trkpt>
      <trkpt lat="45.32128" lon="4.39172">
        <ele>967</ele>
        <time>2024-07-15T10:56:29Z</time>
      </trkpt>
      <trkpt lat="45.32095" lon="4.39227">
        <ele>972</ele>
        <time>2024-07-15T10:57:09Z</time>
      </trkpt>
      <trkpt lat="45.32074" lon="4.39255">
        <ele>973</ele>
        <time>2024-07-15T10:57:32Z</time>
      </trkpt>
      <trkpt lat="45.3206" lon="4.39265">
        <ele>973</ele>
        <time>2024-07-15T10:57:45Z</time>
      </trkpt>
      <trkpt lat="45.32048" lon="4.39279">
        <ele>972</ele>
        <time>2024-07-15T10:57:57Z</time>
      </trkpt>
      <trkpt lat="45.32037" lon="4.39306">
        <ele>974</ele>
        <time>2024-07-15T10:58:15Z</time>
      </trkpt>
      <trkpt lat="45.32024" lon="4.39329">
        <ele>974</ele>
        <time>2024-07-15T10:58:32Z</time>
      </trkpt>
      <trkpt lat="45.31982" lon="4.39372">
        <ele>971</ele>
        <time>2024-07-15T10:59:13Z</time>
      </trkpt>
      <trkpt lat="45.31876" lon="4.39502">
        <ele>975</ele>
        <time>2024-07-15T11:01:05Z</time>
      </trkpt>
      <trkpt lat="45.31843" lon="4.39552">
        <ele>978</ele>
        <time>2024-07-15T11:01:44Z</time>
      </trkpt>
      <trkpt lat="45.31803" lon="4.39611">
        <ele>979</ele>
        <time>2024-07-15T11:02:30Z</time>
      </trkpt>
      <trkpt lat="45.31755" lon="4.39661">
        <ele>978</ele>
        <time>2024-07-15T11:03:18Z</time>
      </trkpt>
      <trkpt lat="45.31739" lon="4.39674">
        <ele>978</ele>
        <time>2024-07-15T11:03:32Z</time>
      </trkpt>
      <trkpt lat="45.31733" lon="4.39687">
        <ele>978</ele>
        <time>2024-07-15T11:03:41Z</time>
      </trkpt>
      <trkpt lat="45.31729" lon="4.39724">
        <ele>977</ele>
        <time>2024-07-15T11:04:02Z</time>
      </trkpt>
      <trkpt lat="45.31727" lon="4.39724">
        <ele>977</ele>
        <time>2024-07-15T11:04:04Z</time>
      </trkpt>
      <trkpt lat="45.31747" lon="4.3973">
        <ele>978</ele>
        <time>2024-07-15T11:04:20Z</time>
      </trkpt>
      <trkpt lat="45.3177" lon="4.3974">
        <ele>979</ele>
        <time>2024-07-15T11:04:39Z</time>
      </trkpt>
      <trkpt lat="45.31786" lon="4.39755">
        <ele>980</ele>
        <time>2024-07-15T11:04:55Z</time>
      </trkpt>
      <trkpt lat="45.31815" lon="4.39783">
        <ele>980</ele>
        <time>2024-07-15T11:05:23Z</time>
      </trkpt>
      <trkpt lat="45.31872" lon="4.39849">
        <ele>979</ele>
        <time>2024-07-15T11:06:22Z</time>
      </trkpt>
      <trkpt lat="45.31885" lon="4.39869">
        <ele>978</ele>
        <time>2024-07-15T11:06:37Z</time>
      </trkpt>
      <trkpt lat="45.31888" lon="4.39878">
        <ele>978</ele>
        <time>2024-07-15T11:06:43Z</time>
      </trkpt>
      <trkpt lat="45.31892" lon="4.39889">
        <ele>978</ele>
        <time>2024-07-15T11:06:50Z</time>
      </trkpt>
      <trkpt lat="45.31902" lon="4.39947">
        <ele>978</ele>
        <time>2024-07-15T11:07:23Z</time>
      </trkpt>
      <trkpt lat="45.31911" lon="4.40064">
        <ele>979</ele>
        <time>2024-07-15T11:08:29Z</time>
      </trkpt>
      <trkpt lat="45.31917" lon="4.40081">
        <ele>979</ele>
        <time>2024-07-15T11:08:40Z</time>
      </trkpt>
      <trkpt lat="45.31939" lon="4.40139">
        <ele>978</ele>
        <time>2024-07-15T11:09:17Z</time>
      </trkpt>
      <trkpt lat="45.32008" lon="4.40336">
        <ele>977</ele>
        <time>2024-07-15T11:11:21Z</time>
      </trkpt>
      <trkpt lat="45.32013" lon="4.40354">
        <ele>977</ele>
        <time>2024-07-15T11:11:32Z</time>
      </trkpt>
      <trkpt lat="45.32017" lon="4.40369">
        <ele>977</ele>
        <time>2024-07-15T11:11:41Z</time>
      </trkpt>
      <trkpt lat="45.32022" lon="4.40404">
        <ele>977</ele>
        <time>2024-07-15T11:12:01Z</time>
      </trkpt>
      <trkpt lat="45.3201" lon="4.40501">
        <ele>979</ele>
        <time>2024-07-15T11:12:57Z</time>
      </trkpt>
      <trkpt lat="45.32005" lon="4.40507">
        <ele>979</ele>
        <time>2024-07-15T11:13:02Z</time>
      </trkpt>
      <trkpt lat="45.31951" lon="4.40565">
        <ele>975</ele>
        <time>2024-07-15T11:13:56Z</time>
      </trkpt>
      <trkpt lat="45.3193" lon="4.40585">
        <ele>974</ele>
        <time>2024-07-15T11:14:16Z</time>
      </trkpt>
      <trkpt lat="45.31923" lon="4.40592">
        <ele>974</ele>
        <time>2024-07-15T11:14:23Z</time>
      </trkpt>
      <trkpt lat="45.31847" lon="4.40603">
        <ele>975</ele>
        <time>2024-07-15T11:15:24Z</time>
      </trkpt>
      <trkpt lat="45.31765" lon="4.4061">
        <ele>977</ele>
        <time>2024-07-15T11:16:30Z</time>
      </trkpt>
      <trkpt lat="45.31762" lon="4.40614">
        <ele>977</ele>
        <time>2024-07-15T11:16:33Z</time>
      </trkpt>
      <trkpt lat="45.31726" lon="4.40648">
        <ele>977</ele>
        <time>2024-07-15T11:17:08Z</time>
      </trkpt>
      <trkpt lat="45.31673" lon="4.40638">
        <ele>960</ele>
        <time>2024-07-15T11:17:51Z</time>
      </trkpt>
      <trkpt lat="45.31674" lon="4.40698">
        <ele>962</ele>
        <time>2024-07-15T11:18:25Z</time>
      </trkpt>
      <trkpt lat="45.317" lon="4.40796">
        <ele>970</ele>
        <time>2024-07-15T11:19:24Z</time>
      </trkpt>
      <trkpt lat="45.3172" lon="4.4088">
        <ele>976</ele>
        <time>2024-07-15T11:20:13Z</time>
      </trkpt>
      <trkpt lat="45.31807" lon="4.41011">
        <ele>982</ele>
        <time>2024-07-15T11:21:55Z</time>
      </trkpt>
      <trkpt lat="45.31864" lon="4.41075">
        <ele>983</ele>
        <time>2024-07-15T11:22:53Z</time>
      </trkpt>
      <trkpt lat="45.31941" lon="4.41086">
        <ele>989</ele>
        <time>2024-07-15T11:23:55Z</time>
      </trkpt>
      <trkpt lat="45.31972" lon="4.41082">
        <ele>991</ele>
        <time>2024-07-15T11:24:20Z</time>
      </trkpt>
      <trkpt lat="45.32021" lon="4.4114">
        <ele>992</ele>
        <time>2024-07-15T11:25:11Z</time>
      </trkpt>
      <trkpt lat="45.32029" lon="4.412">
        <ele>993</ele>
        <time>2024-07-15T11:25:45Z</time>
      </trkpt>
      <trkpt lat="45.32033" lon="4.41262">
        <ele>996</ele>
        <time>2024-07-15T11:26:20Z</time>
      </trkpt>
      <trkpt lat="45.32015" lon="4.41331">
        <ele>1000</ele>
        <time>2024-07-15T11:27:02Z</time>
      </trkpt>
      <trkpt lat="45.31994" lon="4.41363">
        <ele>999</ele>
        <time>2024-07-15T11:27:27Z</time>
      </trkpt>
      <trkpt lat="45.31905" lon="4.41423">
        <ele>1004</ele>
        <time>2024-07-15T11:28:45Z</time>
      </trkpt>
      <trkpt lat="45.31886" lon="4.41427">
        <ele>1005</ele>
        <time>2024-07-15T11:29:01Z</time>
      </trkpt>
      <trkpt lat="45.31872" lon="4.41437">
        <ele>1006</ele>
        <time>2024-07-15T11:29:13Z</time>
      </trkpt>
      <trkpt lat="45.31749" lon="4.41446">
        <ele>1014</ele>
        <time>2024-07-15T11:30:52Z</time>
      </trkpt>
      <trkpt lat="45.31718" lon="4.41446">
        <ele>1013</ele>
        <time>2024-07-15T11:31:17Z</time>
      </trkpt>
      <trkpt lat="45.317" lon="4.41448">
        <ele>1012</ele>
        <time>2024-07-15T11:31:31Z</time>
      </trkpt>
      <trkpt lat="45.31658" lon="4.41459">
        <ele>1013</ele>
        <time>2024-07-15T11:32:05Z</time>
      </trkpt>
      <trkpt lat="45.31619" lon="4.41463">
        <ele>1013</ele>
        <time>2024-07-15T11:32:37Z</time>
      </trkpt>
      <trkpt lat="45.31613" lon="4.41457">
        <ele>1013</ele>
        <time>2024-07-15T11:32:43Z</time>
      </trkpt>
      <trkpt lat="45.31526" lon="4.41416">
        <ele>1012</ele>
        <time>2024-07-15T11:33:56Z</time>
      </trkpt>
      <trkpt lat="45.31496" lon="4.41406">
        <ele>1014</ele>
        <time>2024-07-15T11:34:21Z</time>
      </trkpt>
      <trkpt lat="45.31473" lon="4.41392">
        <ele>1014</ele>
        <time>2024-07-15T11:34:41Z</time>
      </trkpt>
      <trkpt lat="45.31363" lon="4.41335">
        <ele>1016</ele>
        <time>2024-07-15T11:36:14Z</time>
      </trkpt>
      <trkpt lat="45.3133" lon="4.41328">
        <ele>1015</ele>
        <time>2024-07-15T11:36:41Z</time>
      </trkpt>
      <trkpt lat="45.3133" lon="4.41333">
        <ele>1015</ele>
        <time>2024-07-15T11:36:44Z</time>
      </trkpt>
      <trkpt lat="45.31328" lon="4.41368">
        <ele>1013</ele>
        <time>2024-07-15T11:37:04Z</time>
      </trkpt>
      <trkpt lat="45.31324" lon="4.4141">
        <ele>1011</ele>
        <time>2024-07-15T11:37:28Z</time>
      </trkpt>
      <trkpt lat="45.31323" lon="4.41497">
        <ele>1009</ele>
        <time>2024-07-15T11:38:17Z</time>
      </trkpt>
      <trkpt lat="45.31309" lon="4.41599">
        <ele>1007</ele>
        <time>2024-07-15T11:39:15Z</time>
      </trkpt>
      <trkpt lat="45.3131" lon="4.41627">
        <ele>1007</ele>
        <time>2024-07-15T11:39:31Z</time>
      </trkpt>
      <trkpt lat="45.31308" lon="4.41647">
        <ele>1007</ele>
        <time>2024-07-15T11:39:42Z</time>
      </trkpt>
      <trkpt lat="45.3129" lon="4.4167">
        <ele>1006</ele>
        <time>2024-07-15T11:40:02Z</time>
      </trkpt>
      <trkpt lat="45.31282" lon="4.41681">
        <ele>1006</ele>
        <time>2024-07-15T11:40:11Z</time>
      </trkpt>
      <trkpt lat="45.31261" lon="4.41715">
        <ele>1006</ele>
        <time>2024-07-15T11:40:36Z</time>
      </trkpt>
      <trkpt lat="45.31233" lon="4.41745">
        <ele>1005</ele>
        <time>2024-07-15T11:41:04Z</time>
      </trkpt>
      <trkpt lat="45.31206" lon="4.41802">
        <ele>1005</ele>
        <time>2024-07-15T11:41:43Z</time>
      </trkpt>
      <trkpt lat="45.31169" lon="4.41841">
        <ele>1004</ele>
        <time>2024-07-15T11:42:20Z</time>
      </trkpt>
      <trkpt lat="45.31135" lon="4.41911">
        <ele>1002</ele>
        <time>2024-07-15T11:43:08Z</time>
      </trkpt>
      <trkpt lat="45.31128" lon="4.41921">
        <ele>1001</ele>
        <time>2024-07-15T11:43:15Z</time>
      </trkpt>
      <trkpt lat="45.31107" lon="4.41936">
        <ele>999</ele>
        <time>2024-07-15T11:43:34Z</time>
      </trkpt>
      <trkpt lat="45.31098" lon="4.41945">
        <ele>998</ele>
        <time>2024-07-15T11:43:43Z</time>
      </trkpt>
      <trkpt lat="45.31088" lon="4.41959">
        <ele>998</ele>
        <time>2024-07-15T11:43:54Z</time>
      </trkpt>
      <trkpt lat="45.31067" lon="4.41982">
        <ele>997</ele>
        <time>2024-07-15T11:44:16Z</time>
      </trkpt>
      <trkpt lat="45.31024" lon="4.42037">
        <ele>994</ele>
        <time>2024-07-15T11:45:02Z</time>
      </trkpt>
      <trkpt lat="45.31009" lon="4.42052">
        <ele>994</ele>
        <time>2024-07-15T11:45:17Z</time>
      </trkpt>
      <trkpt lat="45.30996" lon="4.42055">
        <ele>993</ele>
        <time>2024-07-15T11:45:27Z</time>
      </trkpt>
      <trkpt lat="45.30986" lon="4.42055">
        <ele>991</ele>
        <time>2024-07-15T11:45:35Z</time>
      </trkpt>
      <trkpt lat="45.30985" lon="4.42059">
        <ele>991</ele>
        <time>2024-07-15T11:45:37Z</time>
      </trkpt>
      <trkpt lat="45.30977" lon="4.42085">
        <ele>990</ele>
        <time>2024-07-15T11:45:53Z</time>
      </trkpt>
      <trkpt lat="45.30975" lon="4.42107">
        <ele>988</ele>
        <time>2024-07-15T11:46:06Z</time>
      </trkpt>
      <trkpt lat="45.30979" lon="4.42119">
        <ele>988</ele>
        <time>2024-07-15T11:46:13Z</time>
      </trkpt>
      <trkpt lat="45.30988" lon="4.42161">
        <ele>987</ele>
        <time>2024-07-15T11:46:38Z</time>
      </trkpt>
      <trkpt lat="45.30993" lon="4.42173">
        <ele>987</ele>
        <time>2024-07-15T11:46:46Z</time>
      </trkpt>
      <trkpt lat="45.31014" lon="4.42208">
        <ele>986</ele>
        <time>2024-07-15T11:47:12Z</time>
      </trkpt>
      <trkpt lat="45.31089" lon="4.42323">
        <ele>985</ele>
        <time>2024-07-15T11:48:40Z</time>
      </trkpt>
      <trkpt lat="45.31123" lon="4.42364">
        <ele>987</ele>
        <time>2024-07-15T11:49:16Z</time>
      </trkpt>
      <trkpt lat="45.31121" lon="4.42372">
        <ele>987</ele>
        <time>2024-07-15T11:49:21Z</time>
      </trkpt>
      <trkpt lat="45.31119" lon="4.42387">
        <ele>986</ele>
        <time>2024-07-15T11:49:29Z</time>
      </trkpt>
      <trkpt lat="45.3112" lon="4.42412">
        <ele>987</ele>
        <time>2024-07-15T11:49:43Z</time>
      </trkpt>
      <trkpt lat="45.31119" lon="4.42439">
        <ele>987</ele>
        <time>2024-07-15T11:49:59Z</time>
      </trkpt>
      <trkpt lat="45.31122" lon="4.42451">
        <ele>987</ele>
        <time>2024-07-15T11:50:06Z</time>
      </trkpt>
      <trkpt lat="45.31134" lon="4.42478">
        <ele>989</ele>
        <time>2024-07-15T11:50:24Z</time>
      </trkpt>
      <trkpt lat="45.31149" lon="4.42523">
        <ele>990</ele>
        <time>2024-07-15T11:50:52Z</time>
      </trkpt>
      <trkpt lat="45.31171" lon="4.42567">
        <ele>991</ele>
        <time>2024-07-15T11:51:22Z</time>
      </trkpt>
      <trkpt lat="45.31211" lon="4.4262">
        <ele>994</ele>
        <time>2024-07-15T11:52:06Z</time>
      </trkpt>
      <trkpt lat="45.31235" lon="4.42646">
        <ele>996</ele>
        <time>2024-07-15T11:52:30Z</time>
      </trkpt>
      <trkpt lat="45.31258" lon="4.42661">
        <ele>998</ele>
        <time>2024-07-15T11:52:50Z</time>
      </trkpt>
      <trkpt lat="45.31298" lon="4.42673">
        <ele>1002</ele>
        <time>2024-07-15T11:53:23Z</time>
      </trkpt>
      <trkpt lat="45.31294" lon="4.4268">
        <ele>1001</ele>
        <time>2024-07-15T11:53:28Z</time>
      </trkpt>
      <trkpt lat="45.31298" lon="4.42673">
        <ele>1002</ele>
        <time>2024-07-15T11:53:33Z</time>
      </trkpt>
      <trkpt lat="45.31321" lon="4.42672">
        <ele>1004</ele>
        <time>2024-07-15T11:53:52Z</time>
      </trkpt>
      <trkpt lat="45.31455" lon="4.42683">
        <ele>1015</ele>
        <time>2024-07-15T11:55:39Z</time>
      </trkpt>
      <trkpt lat="45.3152" lon="4.42705">
        <ele>1021</ele>
        <time>2024-07-15T11:56:33Z</time>
      </trkpt>
      <trkpt lat="45.3155" lon="4.42741">
        <ele>1026</ele>
        <time>2024-07-15T11:57:04Z</time>
      </trkpt>
      <trkpt lat="45.31552" lon="4.42744">
        <ele>1027</ele>
        <time>2024-07-15T11:57:06Z</time>
      </trkpt>
      <trkpt lat="45.3158" lon="4.42799">
        <ele>1031</ele>
        <time>2024-07-15T11:57:45Z</time>
      </trkpt>
      <trkpt lat="45.31626" lon="4.42856">
        <ele>1034</ele>
        <time>2024-07-15T11:58:34Z</time>
      </trkpt>
      <trkpt lat="45.31642" lon="4.42887">
        <ele>1035</ele>
        <time>2024-07-15T11:58:55Z</time>
      </trkpt>
      <trkpt lat="45.31667" lon="4.42924">
        <ele>1037</ele>
        <time>2024-07-15T11:59:24Z</time>
      </trkpt>
      <trkpt lat="45.31686" lon="4.42948">
        <ele>1038</ele>
        <time>2024-07-15T11:59:44Z</time>
      </trkpt>
      <trkpt lat="45.31693" lon="4.42952">
        <ele>1038</ele>
        <time>2024-07-15T11:59:50Z</time>
      </trkpt>
      <trkpt lat="45.31693" lon="4.42946">
        <ele>1038</ele>
        <time>2024-07-15T11:59:54Z</time>
      </trkpt>
      <trkpt lat="45.31693" lon="4.42952">
        <ele>1038</ele>
        <time>2024-07-15T11:59:57Z</time>
      </trkpt>
      <trkpt lat="45.31694" lon="4.43004">
        <ele>1039</ele>
        <time>2024-07-15T12:00:27Z</time>
      </trkpt>
      <trkpt lat="45.31699" lon="4.431">
        <ele>1045</ele>
        <time>2024-07-15T12:01:21Z</time>
      </trkpt>
      <trkpt lat="45.3171" lon="4.432">
        <ele>1054</ele>
        <time>2024-07-15T12:02:18Z</time>
      </trkpt>
      <trkpt lat="45.31713" lon="4.43223">
        <ele>1056</ele>
        <time>2024-07-15T12:02:31Z</time>
      </trkpt>
      <trkpt lat="45.31711" lon="4.43241">
        <ele>1058</ele>
        <time>2024-07-15T12:02:41Z</time>
      </trkpt>
      <trkpt lat="45.31701" lon="4.43313">
        <ele>1063</ele>
        <time>2024-07-15T12:03:22Z</time>
      </trkpt>
      <trkpt lat="45.31696" lon="4.43415">
        <ele>1069</ele>
        <time>2024-07-15T12:04:20Z</time>
      </trkpt>
      <trkpt lat="45.31697" lon="4.43442">
        <ele>1070</ele>
        <time>2024-07-15T12:04:35Z</time>
      </trkpt>
      <trkpt lat="45.31713" lon="4.4351">
        <ele>1075</ele>
        <time>2024-07-15T12:05:16Z</time>
      </trkpt>
      <trkpt lat="45.31719" lon="4.43533">
        <ele>1077</ele>
        <time>2024-07-15T12:05:29Z</time>
      </trkpt>
      <trkpt lat="45.31715" lon="4.43563">
        <ele>1079</ele>
        <time>2024-07-15T12:05:47Z</time>
      </trkpt>
      <trkpt lat="45.31689" lon="4.43635">
        <ele>1079</ele>
        <time>2024-07-15T12:06:32Z</time>
      </trkpt>
      <trkpt lat="45.31683" lon="4.43647">
        <ele>1079</ele>
        <time>2024-07-15T12:06:40Z</time>
      </trkpt>
      <trkpt lat="45.31646" lon="4.43688">
        <ele>1081</ele>
        <time>2024-07-15T12:07:18Z</time>
      </trkpt>
      <trkpt lat="45.3164" lon="4.43702">
        <ele>1082</ele>
        <time>2024-07-15T12:07:27Z</time>
      </trkpt>
      <trkpt lat="45.31623" lon="4.43723">
        <ele>1086</ele>
        <time>2024-07-15T12:07:45Z</time>
      </trkpt>
      <trkpt lat="45.31596" lon="4.43743">
        <ele>1090</ele>
        <time>2024-07-15T12:08:10Z</time>
      </trkpt>
      <trkpt lat="45.31562" lon="4.43753">
        <ele>1094</ele>
        <time>2024-07-15T12:08:37Z</time>
      </trkpt>
      <trkpt lat="45.3155" lon="4.43761">
        <ele>1095</ele>
        <time>2024-07-15T12:08:48Z</time>
      </trkpt>
      <trkpt lat="45.31541" lon="4.43761">
        <ele>1096</ele>
        <time>2024-07-15T12:08:55Z</time>
      </trkpt>
      <trkpt lat="45.31529" lon="4.43758">
        <ele>1096</ele>
        <time>2024-07-15T12:09:05Z</time>
      </trkpt>
      <trkpt lat="45.31512" lon="4.43746">
        <ele>1097</ele>
        <time>2024-07-15T12:09:20Z</time>
      </trkpt>
      <trkpt lat="45.31498" lon="4.43745">
        <ele>1098</ele>
        <time>2024-07-15T12:09:31Z</time>
      </trkpt>
      <trkpt lat="45.31464" lon="4.43789">
        <ele>1105</ele>
        <time>2024-07-15T12:10:08Z</time>
      </trkpt>
      <trkpt lat="45.31452" lon="4.43801">
        <ele>1108</ele>
        <time>2024-07-15T12:10:20Z</time>
      </trkpt>
      <trkpt lat="45.31438" lon="4.43805">
        <ele>1110</ele>
        <time>2024-07-15T12:10:31Z</time>
      </trkpt>
      <trkpt lat="45.31425" lon="4.438">
        <ele>1112</ele>
        <time>2024-07-15T12:10:42Z</time>
      </trkpt>
      <trkpt lat="45.31415" lon="4.43791">
        <ele>1112</ele>
        <time>2024-07-15T12:10:52Z</time>
      </trkpt>
      <trkpt lat="45.31401" lon="4.43785">
        <ele>1113</ele>
        <time>2024-07-15T12:11:03Z</time>
      </trkpt>
      <trkpt lat="45.31389" lon="4.43783">
        <ele>1114</ele>
        <time>2024-07-15T12:11:13Z</time>
      </trkpt>
      <trkpt lat="45.31349" lon="4.43797">
        <ele>1119</ele>
        <time>2024-07-15T12:11:46Z</time>
      </trkpt>
      <trkpt lat="45.31324" lon="4.43809">
        <ele>1124</ele>
        <time>2024-07-15T12:12:07Z</time>
      </trkpt>
      <trkpt lat="45.31292" lon="4.43818">
        <ele>1129</ele>
        <time>2024-07-15T12:12:33Z</time>
      </trkpt>
      <trkpt lat="45.31273" lon="4.43821">
        <ele>1132</ele>
        <time>2024-07-15T12:12:49Z</time>
      </trkpt>
      <trkpt lat="45.31257" lon="4.43821">
        <ele>1134</ele>
        <time>2024-07-15T12:13:01Z</time>
      </trkpt>
      <trkpt lat="45.31248" lon="4.43828">
        <ele>1136</ele>
        <time>2024-07-15T12:13:10Z</time>
      </trkpt>
      <trkpt lat="45.31203" lon="4.43834">
        <ele>1143</ele>
        <time>2024-07-15T12:13:46Z</time>
      </trkpt>
      <trkpt lat="45.31179" lon="4.43861">
        <ele>1150</ele>
        <time>2024-07-15T12:14:10Z</time>
      </trkpt>
      <trkpt lat="45.31154" lon="4.43871">
        <ele>1155</ele>
        <time>2024-07-15T12:14:31Z</time>
      </trkpt>
      <trkpt lat="45.31095" lon="4.43885">
        <ele>1165</ele>
        <time>2024-07-15T12:15:19Z</time>
      </trkpt>
      <trkpt lat="45.31081" lon="4.43891">
        <ele>1168</ele>
        <time>2024-07-15T12:15:31Z</time>
      </trkpt>
      <trkpt lat="45.31051" lon="4.43887">
        <ele>1172</ele>
        <time>2024-07-15T12:15:55Z</time>
      </trkpt>
      <trkpt lat="45.3104" lon="4.4389">
        <ele>1173</ele>
        <time>2024-07-15T12:16:04Z</time>
      </trkpt>
      <trkpt lat="45.31031" lon="4.43902">
        <ele>1176</ele>
        <time>2024-07-15T12:16:14Z</time>
      </trkpt>
      <trkpt lat="45.3102" lon="4.4391">
        <ele>1178</ele>
        <time>2024-07-15T12:16:24Z</time>
      </trkpt>
      <trkpt lat="45.30996" lon="4.43916">
        <ele>1183</ele>
        <time>2024-07-15T12:16:43Z</time>
      </trkpt>
      <trkpt lat="45.30982" lon="4.43925">
        <ele>1186</ele>
        <time>2024-07-15T12:16:55Z</time>
      </trkpt>
      <trkpt lat="45.30963" lon="4.43928">
        <ele>1189</ele>
        <time>2024-07-15T12:17:11Z</time>
      </trkpt>
      <trkpt lat="45.30948" lon="4.43937">
        <ele>1193</ele>
        <time>2024-07-15T12:17:24Z</time>
      </trkpt>
      <trkpt lat="45.30935" lon="4.43957">
        <ele>1197</ele>
        <time>2024-07-15T12:17:39Z</time>
      </trkpt>
      <trkpt lat="45.30924" lon="4.43964">
        <ele>1200</ele>
        <time>2024-07-15T12:17:49Z</time>
      </trkpt>
      <trkpt lat="45.30911" lon="4.43982">
        <ele>1204</ele>
        <time>2024-07-15T12:18:03Z</time>
      </trkpt>
      <trkpt lat="45.30895" lon="4.43992">
        <ele>1207</ele>
        <time>2024-07-15T12:18:17Z</time>
      </trkpt>
      <trkpt lat="45.30876" lon="4.44019">
        <ele>1211</ele>
        <time>2024-07-15T12:18:39Z</time>
      </trkpt>
      <trkpt lat="45.30862" lon="4.44043">
        <ele>1214</ele>
        <time>2024-07-15T12:18:56Z</time>
      </trkpt>
      <trkpt lat="45.30855" lon="4.44048">
        <ele>1215</ele>
        <time>2024-07-15T12:19:03Z</time>
      </trkpt>
      <trkpt lat="45.30833" lon="4.44049">
        <ele>1218</ele>
        <time>2024-07-15T12:19:20Z</time>
      </trkpt>
      <trkpt lat="45.30812" lon="4.44042">
        <ele>1218</ele>
        <time>2024-07-15T12:19:37Z</time>
      </trkpt>
      <trkpt lat="45.30805" lon="4.44035">
        <ele>1217</ele>
        <time>2024-07-15T12:19:44Z</time>
      </trkpt>
      <trkpt lat="45.30808" lon="4.44198">
        <ele>1226</ele>
        <time>2024-07-15T12:21:16Z</time>
      </trkpt>
      <trkpt lat="45.308" lon="4.44242">
        <ele>1229</ele>
        <time>2024-07-15T12:21:42Z</time>
      </trkpt>
      <trkpt lat="45.30794" lon="4.44266">
        <ele>1230</ele>
        <time>2024-07-15T12:21:56Z</time>
      </trkpt>
      <trkpt lat="45.30793" lon="4.44288">
        <ele>1232</ele>
        <time>2024-07-15T12:22:09Z</time>
      </trkpt>
      <trkpt lat="45.30786" lon="4.44329">
        <ele>1234</ele>
        <time>2024-07-15T12:22:32Z</time>
      </trkpt>
      <trkpt lat="45.30779" lon="4.44351">
        <ele>1235</ele>
        <time>2024-07-15T12:22:46Z</time>
      </trkpt>
      <trkpt lat="45.3076" lon="4.4443">
        <ele>1238</ele>
        <time>2024-07-15T12:23:33Z</time>
      </trkpt>
      <trkpt lat="45.30753" lon="4.44443">
        <ele>1238</ele>
        <time>2024-07-15T12:23:42Z</time>
      </trkpt>
      <trkpt lat="45.30743" lon="4.44453">
        <ele>1238</ele>
        <time>2024-07-15T12:23:52Z</time>
      </trkpt>
      <trkpt lat="45.3071" lon="4.44479">
        <ele>1238</ele>
        <time>2024-07-15T12:24:22Z</time>
      </trkpt>
      <trkpt lat="45.30696" lon="4.44481">
        <ele>1238</ele>
        <time>2024-07-15T12:24:33Z</time>
      </trkpt>
      <trkpt lat="45.3067" lon="4.4448">
        <ele>1237</ele>
        <time>2024-07-15T12:24:54Z</time>
      </trkpt>
      <trkpt lat="45.30636" lon="4.44475">
        <ele>1237</ele>
        <time>2024-07-15T12:25:22Z</time>
      </trkpt>
      <trkpt lat="45.30616" lon="4.44462">
        <ele>1236</ele>
        <time>2024-07-15T12:25:39Z</time>
      </trkpt>
      <trkpt lat="45.30565" lon="4.44421">
        <ele>1232</ele>
        <time>2024-07-15T12:26:26Z</time>
      </trkpt>
      <trkpt lat="45.30547" lon="4.44413">
        <ele>1230</ele>
        <time>2024-07-15T12:26:41Z</time>
      </trkpt>
      <trkpt lat="45.30528" lon="4.44411">
        <ele>1230</ele>
        <time>2024-07-15T12:26:56Z</time>
      </trkpt>
      <trkpt lat="45.30501" lon="4.44416">
        <ele>1229</ele>
        <time>2024-07-15T12:27:18Z</time>
      </trkpt>
      <trkpt lat="45.30467" lon="4.44419">
        <ele>1228</ele>
        <time>2024-07-15T12:27:46Z</time>
      </trkpt>
      <trkpt lat="45.30452" lon="4.44425">
        <ele>1227</ele>
        <time>2024-07-15T12:27:58Z</time>
      </trkpt>
      <trkpt lat="45.30465" lon="4.4443">
        <ele>1228</ele>
        <time>2024-07-15T12:28:09Z</time>
      </trkpt>
      <trkpt lat="45.30543" lon="4.44512">
        <ele>1239</ele>
        <time>2024-07-15T12:29:26Z</time>
      </trkpt>
      <trkpt lat="45.30548" lon="4.44518">
        <ele>1239</ele>
        <time>2024-07-15T12:29:32Z</time>
      </trkpt>
      <trkpt lat="45.30591" lon="4.44518">
        <ele>1240</ele>
        <time>2024-07-15T12:30:06Z</time>
      </trkpt>
      <trkpt lat="45.30612" lon="4.44526">
        <ele>1240</ele>
        <time>2024-07-15T12:30:24Z</time>
      </trkpt>
      <trkpt lat="45.30692" lon="4.44527">
        <ele>1239</ele>
        <time>2024-07-15T12:31:28Z</time>
      </trkpt>
      <trkpt lat="45.30709" lon="4.4453">
        <ele>1239</ele>
        <time>2024-07-15T12:31:41Z</time>
      </trkpt>
      <trkpt lat="45.30852" lon="4.44598">
        <ele>1231</ele>
        <time>2024-07-15T12:33:42Z</time>
      </trkpt>
      <trkpt lat="45.30931" lon="4.44638">
        <ele>1224</ele>
        <time>2024-07-15T12:34:49Z</time>
      </trkpt>
      <trkpt lat="45.30932" lon="4.44648">
        <ele>1223</ele>
        <time>2024-07-15T12:34:55Z</time>
      </trkpt>
      <trkpt lat="45.30927" lon="4.44672">
        <ele>1223</ele>
        <time>2024-07-15T12:35:09Z</time>
      </trkpt>
      <trkpt lat="45.30922" lon="4.44687">
        <ele>1221</ele>
        <time>2024-07-15T12:35:18Z</time>
      </trkpt>
      <trkpt lat="45.30911" lon="4.44706">
        <ele>1219</ele>
        <time>2024-07-15T12:35:32Z</time>
      </trkpt>
      <trkpt lat="45.3091" lon="4.4474">
        <ele>1215</ele>
        <time>2024-07-15T12:35:51Z</time>
      </trkpt>
      <trkpt lat="45.30905" lon="4.44763">
        <ele>1213</ele>
        <time>2024-07-15T12:36:05Z</time>
      </trkpt>
      <trkpt lat="45.30897" lon="4.4478">
        <ele>1213</ele>
        <time>2024-07-15T12:36:16Z</time>
      </trkpt>
      <trkpt lat="45.30886" lon="4.44797">
        <ele>1213</ele>
        <time>2024-07-15T12:36:29Z</time>
      </trkpt>
      <trkpt lat="45.30874" lon="4.44842">
        <ele>1213</ele>
        <time>2024-07-15T12:36:56Z</time>
      </trkpt>
      <trkpt lat="45.30871" lon="4.44867">
        <ele>1213</ele>
        <time>2024-07-15T12:37:11Z</time>
      </trkpt>
      <trkpt lat="45.30879" lon="4.44952">
        <ele>1210</ele>
        <time>2024-07-15T12:37:59Z</time>
      </trkpt>
      <trkpt lat="45.30905" lon="4.45033">
        <ele>1205</ele>
        <time>2024-07-15T12:38:49Z</time>
      </trkpt>
      <trkpt lat="45.30925" lon="4.45087">
        <ele>1203</ele>
        <time>2024-07-15T12:39:24Z</time>
      </trkpt>
      <trkpt lat="45.3093" lon="4.4517">
        <ele>1196</ele>
        <time>2024-07-15T12:40:10Z</time>
      </trkpt>
      <trkpt lat="45.30929" lon="4.45175">
        <ele>1196</ele>
        <time>2024-07-15T12:40:13Z</time>
      </trkpt>
      <trkpt lat="45.3093" lon="4.4517">
        <ele>1196</ele>
        <time>2024-07-15T12:40:16Z</time>
      </trkpt>
      <trkpt lat="45.3095" lon="4.45162">
        <ele>1194</ele>
        <time>2024-07-15T12:40:33Z</time>
      </trkpt>
      <trkpt lat="45.30968" lon="4.4516">
        <ele>1191</ele>
        <time>2024-07-15T12:40:47Z</time>
      </trkpt>
      <trkpt lat="45.30987" lon="4.45146">
        <ele>1189</ele>
        <time>2024-07-15T12:41:05Z</time>
      </trkpt>
      <trkpt lat="45.31007" lon="4.45128">
        <ele>1188</ele>
        <time>2024-07-15T12:41:24Z</time>
      </trkpt>
      <trkpt lat="45.31032" lon="4.45115">
        <ele>1188</ele>
        <time>2024-07-15T12:41:45Z</time>
      </trkpt>
      <trkpt lat="45.31056" lon="4.45115">
        <ele>1187</ele>
        <time>2024-07-15T12:42:04Z</time>
      </trkpt>
      <trkpt lat="45.3108" lon="4.45122">
        <ele>1186</ele>
        <time>2024-07-15T12:42:24Z</time>
      </trkpt>
      <trkpt lat="45.31098" lon="4.45137">
        <ele>1185</ele>
        <time>2024-07-15T12:42:40Z</time>
      </trkpt>
      <trkpt lat="45.31111" lon="4.45141">
        <ele>1185</ele>
        <time>2024-07-15T12:42:51Z</time>
      </trkpt>
      <trkpt lat="45.31124" lon="4.4515">
        <ele>1184</ele>
        <time>2024-07-15T12:43:03Z</time>
      </trkpt>
      <trkpt lat="45.31128" lon="4.45162">
        <ele>1184</ele>
        <time>2024-07-15T12:43:10Z</time>
      </trkpt>
      <trkpt lat="45.31179" lon="4.45337">
        <ele>1184</ele>
        <time>2024-07-15T12:44:57Z</time>
      </trkpt>
      <trkpt lat="45.31263" lon="4.45429">
        <ele>1182</ele>
        <time>2024-07-15T12:46:22Z</time>
      </trkpt>
      <trkpt lat="45.3131" lon="4.4547">
        <ele>1178</ele>
        <time>2024-07-15T12:47:06Z</time>
      </trkpt>
      <trkpt lat="45.31348" lon="4.45537">
        <ele>1172</ele>
        <time>2024-07-15T12:47:54Z</time>
      </trkpt>
      <trkpt lat="45.3139" lon="4.45588">
        <ele>1163</ele>
        <time>2024-07-15T12:48:38Z</time>
      </trkpt>
      <trkpt lat="45.31421" lon="4.45666">
        <ele>1156</ele>
        <time>2024-07-15T12:49:29Z</time>
      </trkpt>
      <trkpt lat="45.31424" lon="4.45713">
        <ele>1153</ele>
        <time>2024-07-15T12:49:55Z</time>
      </trkpt>
      <trkpt lat="45.31424" lon="4.4574">
        <ele>1151</ele>
        <time>2024-07-15T12:50:11Z</time>
      </trkpt>
      <trkpt lat="45.31419" lon="4.45757">
        <ele>1151</ele>
        <time>2024-07-15T12:50:21Z</time>
      </trkpt>
      <trkpt lat="45.31425" lon="4.45895">
        <ele>1152</ele>
        <time>2024-07-15T12:51:39Z</time>
      </trkpt>
      <trkpt lat="45.31425" lon="4.45935">
        <ele>1152</ele>
        <time>2024-07-15T12:52:01Z</time>
      </trkpt>
      <trkpt lat="45.31432" lon="4.45928">
        <ele>1153</ele>
        <time>2024-07-15T12:52:08Z</time>
      </trkpt>
      <trkpt lat="45.31468" lon="4.45898">
        <ele>1154</ele>
        <time>2024-07-15T12:52:42Z</time>
      </trkpt>
      <trkpt lat="45.31517" lon="4.45868">
        <ele>1153</ele>
        <time>2024-07-15T12:53:24Z</time>
        <extensions>
          <visugpx:TrkExtension xmlns:visugpx="https://www.visugpx.com/editgpx/">
            <visugpx:node>1</visugpx:node>
            </visugpx:TrkExtension>
        </extensions>
      </trkpt>
    </trkseg>
  </trk>
</gpx>